Return to Metar
METAR CYNL 271600Z AUTO 20007KT 9SM CLR 26/13 A2993 RMK AO1 SLP119
METAR CYNL 271500Z AUTO 23004KT 9SM CLR 24/13 A2994 RMK AO1 SLP123
METAR CYNL 271400Z AUTO 23005KT 9SM CLR 22/14 A2995 RMK AO1 SLP127
METAR CYNL 271300Z AUTO 22005KT 9SM CLR 19/14 A2996 RMK AO1 SLP130
METAR CYNL 271200Z AUTO 23003KT 9SM CLR 16/13 A2995 RMK AO1 SLP131
METAR CYNL 271100Z AUTO 25003KT 9SM CLR 15/14 A2996 RMK AO1 SLP134
METAR CYNL 271000Z AUTO 22003KT 9SM CLR 15/13 A2996 RMK AO1 SLP134
METAR CYNL 270900Z AUTO 18002KT 9SM FEW130 16/14 A2997 RMK AO1 SLP135
METAR CYNL 270800Z AUTO 17002KT 9SM SCT100 17/14 A2997 RMK AO1 SLP133
METAR CYNL 270700Z AUTO 00000KT 9SM SCT140 17/14 A2998 RMK AO1 SLP135
METAR CYNL 270600Z AUTO 20004KT 9SM FEW096 18/14 A2997 RMK AO1 SLP132
METAR CYNL 270500Z AUTO 20004KT 9SM BKN140 18/15 A2997 RMK AO1 SLP133
METAR CYNL 270400Z AUTO 00000KT 9SM CLR 18/16 A2998 RMK AO1 SLP134
METAR CYNL 270300Z AUTO 21003KT 9SM FEW110 20/15 A2997 RMK AO1 SLP132
METAR CYNL 270200Z AUTO 20003KT 9SM FEW130 22/14 A2997 RMK AO1 SLP133
METAR CYNL 270100Z AUTO 00000KT 9SM FEW110 22/14 A2997 RMK AO1 SLP136
METAR CYNL 270000Z AUTO 00000KT 9SM FEW120 22/13 A2997 RMK AO1 SLP139
METAR CYNL 262300Z AUTO 22004KT 9SM SCT100 23/11 A2998 RMK AO1 SLP144
METAR CYNL 262200Z AUTO 23008KT 9SM SCT100 22/12 A3000 RMK AO1 SLP150
METAR CYNL 262100Z AUTO 31008KT 9SM SCT110 26/09 A2998 RMK AO1 SLP141
METAR CYNL 262000Z AUTO 25004KT 9SM FEW180 26/09 A2998 RMK AO1 SLP141
METAR CYNL 261900Z AUTO 26006KT 210V310 9SM FEW180 26/11 A2999 RMK AO1 SLP140
METAR CYNL 261800Z AUTO 18006KT 130V220 9SM CLR 25/11 A2999 RMK AO1 SLP142
METAR CYNL 261700Z AUTO 15003KT 9SM CLR 24/11 A2999 RMK AO1 SLP142
METAR CYNL 261600Z AUTO 16002KT 9SM CLR 24/13 A3000 RMK AO1 SLP141
METAR CYNL 261500Z AUTO 14002KT 9SM CLR 21/13 A2999 RMK AO1 SLP142
METAR CYNL 261400Z AUTO 00000KT 9SM CLR 18/13 A3000 RMK AO1 SLP143
METAR CYNL 261300Z AUTO 00000KT 9SM FEW100 15/12 A2999 RMK AO1 SLP142
METAR CYNL 261200Z AUTO 00000KT 9SM FEW110 14/12 A2998 RMK AO1 SLP139
METAR CYNL 261100Z AUTO 24003KT 9SM BKN130 13/12 A2998 RMK AO1 SLP141
METAR CYNL 261000Z AUTO 00000KT 9SM FEW130 12/11 A2997 RMK AO1 SLP136
METAR CYNL 260900Z AUTO 00000KT 9SM CLR 12/11 A2996 RMK AO1 SLP135
METAR CYNL 260800Z AUTO 00000KT 9SM CLR 14/11 A2995 RMK AO1 SLP133
METAR CYNL 260700Z AUTO 00000KT 9SM CLR 15/12 A2993 RMK AO1 SLP127
METAR CYNL 260600Z AUTO 31002KT 9SM CLR 16/12 A2992 RMK AO1 SLP120
METAR CYNL 260500Z AUTO 31005KT 9SM CLR 19/10 A2990 RMK AO1 SLP113
METAR CYNL 260400Z AUTO 30004KT 9SM CLR 20/10 A2989 RMK AO1 SLP108
METAR CYNL 260300Z AUTO 30006KT 9SM CLR 22/09 A2987 RMK AO1 SLP101
METAR CYNL 260200Z AUTO 30004KT 9SM SCT072 24/09 A2986 RMK AO1 SLP095
METAR CYNL 260100Z AUTO 30011G19KT 9SM FEW068 24/09 A2985 RMK AO1 SLP092
METAR CYNL 260000Z AUTO 31007G18KT 9SM SCT072 24/09 A2984 RMK AO1 SLP093
METAR CYNL 252300Z AUTO 30008G16KT 9SM FEW074 25/09 A2983 RMK AO1 SLP089
METAR CYNL 252200Z AUTO 29011G23KT 9SM CLR 24/10 A2984 RMK AO1 SLP094
METAR CYNL 252100Z AUTO 27011G16KT 9SM FEW094 22/10 A2984 RMK AO1 SLP094
METAR CYNL 252000Z AUTO 26010G15KT 9SM FEW096 21/10 A2984 RMK AO1 SLP094
METAR CYNL 251900Z AUTO 29011KT 9SM FEW090 SCT190 20/10 A2984 RMK AO1 SLP094
METAR CYNL 251800Z AUTO 30006KT 9SM FEW082 19/10 A2983 RMK AO1 SLP094
METAR CYNL 251700Z AUTO 31007KT 9SM FEW110 19/09 A2983 RMK AO1 SLP091
METAR CYNL 251600Z AUTO 32007KT 9SM FEW210 18/09 A2982 RMK AO1 SLP089
METAR CYNL 251500Z AUTO 32008KT 9SM FEW220 19/10 A2980 RMK AO1 SLP084
METAR CYNL 251400Z AUTO 34006KT 9SM CLR 17/14 A2979 RMK AO1 SLP082
METAR CYNL 251300Z AUTO 34007KT 9SM CLR 15/13 A2978 RMK AO1 SLP077
METAR CYNL 251200Z AUTO 00006KT 9SM CLR 14/13 A2977 RMK AO1 SLP074
METAR CYNL 251100Z AUTO 00005KT 9SM CLR 13/12 A2976 RMK AO1 SLP072
METAR CYNL 251000Z AUTO 35007KT 9SM CLR 13/13 A2975 RMK AO1 SLP068
SPECI CYNL 250902Z AUTO 01005KT 9SM SCT028 14/13 A2974 RMK AO1 SLP063
METAR CYNL 250900Z AUTO 01005KT 9SM BKN028 14/13 A2974 RMK AO1 SLP063
SPECI CYNL 250840Z AUTO 02005KT 9SM SCT016 OVC028 15/14 A2974 RMK AO1 SLP064
METAR CYNL 250800Z AUTO 02007KT 9SM BKN017 15/14 A2974 RMK AO1 SLP062
SPECI CYNL 250713Z AUTO 02006KT 9SM FEW016 BKN022 15/14 A2973 RMK AO1 SLP061
SPECI CYNL 250708Z AUTO 02007KT 9SM SCT022 BKN028 15/14 A2973 RMK AO1 SLP061
SPECI CYNL 250704Z AUTO 02006KT 9SM SCT023 15/14 A2973 RMK AO1 SLP061
METAR CYNL 250700Z AUTO 03006KT 9SM SCT023 BKN028 15/14 A2973 RMK AO1 SLP061
SPECI CYNL 250659Z AUTO 03006KT 9SM SCT023 BKN028 15/14 A2973 RMK AO1 SLP062
METAR CYNL 250600Z AUTO 02006KT 9SM OVC017 16/14 A2974 RMK AO1 SLP063
METAR CYNL 250500Z AUTO 04005KT 9SM BKN018 15/14 A2973 RMK AO1 SLP063
SPECI CYNL 250416Z AUTO 03006KT 9SM FEW015 BKN021 BKN046 15/15 A2973 RMK AO1 SLP064
METAR CYNL 250400Z AUTO 03006KT 9SM FEW013 SCT026 BKN046 15/15 A2973 RMK AO1 SLP063
SPECI CYNL 250352Z AUTO 04006KT 3SM FEW006 BKN045 OVC064 15/15 A2973 RMK AO1 SLP064
SPECI CYNL 250349Z AUTO 04007KT 1 1/2SM FEW006 SCT025 BKN045 15/15 A2973 RMK AO1 SLP064
SPECI CYNL 250345Z AUTO 05007KT 1 1/4SM FEW004 SCT026 BKN045 15/15 A2973 RMK AO1 SLP064
SPECI CYNL 250344Z AUTO 04008KT 1 1/2SM FEW004 SCT026 BKN045 15/15 A2973 RMK AO1 SLP064
SPECI CYNL 250342Z AUTO 04007KT 1 1/4SM FEW005 SCT026 BKN046 15/15 A2973 RMK AO1 SLP064
SPECI CYNL 250341Z AUTO 04007KT 1 1/2SM FEW005 SCT026 BKN046 15/15 A2973 RMK AO1 SLP064
SPECI CYNL 250339Z AUTO 05008KT 2 1/2SM FEW005 SCT021 BKN030 15/15 A2973 RMK AO1 SLP063
SPECI CYNL 250337Z AUTO 06007KT 3SM FEW005 SCT021 BKN030 15/15 A2973 RMK AO1 SLP063
SPECI CYNL 250333Z AUTO 06008KT 6SM FEW005 BKN019 BKN030 15/15 A2973 RMK AO1 SLP063
SPECI CYNL 250331Z AUTO 06007KT 8SM FEW003 SCT018 BKN026 15/15 A2973 RMK AO1 SLP063
SPECI CYNL 250325Z AUTO 05007KT 4SM FEW002 SCT018 BKN022 15/15 A2973 RMK AO1 SLP063
SPECI CYNL 250324Z AUTO 04007KT 1 3/4SM VV029 15/15 A2973 RMK AO1 SLP063
SPECI CYNL 250323Z AUTO 04007KT 1 1/4SM FEW002 BKN018 OVC032 15/15 A2973 RMK AO1 SLP064
SPECI CYNL 250322Z AUTO 04006KT 3/4SM FEW002 BKN018 OVC032 15/15 A2973 RMK AO1 SLP064
SPECI CYNL 250315Z AUTO 05006KT 5/8SM FEW002 BKN019 OVC027 16/15 A2973 RMK AO1 SLP064
SPECI CYNL 250312Z AUTO 08005KT 1 3/4SM BKN019 OVC027 16/15 A2973 RMK AO1 SLP064
METAR CYNL 250300Z AUTO 06004KT 9SM BKN021 BKN025 OVC033 16/15 A2973 RMK AO1 SLP063
SPECI CYNL 250256Z AUTO 05005KT 3SM BKN021 BKN026 OVC033 16/15 A2973 RMK AO1 SLP063
SPECI CYNL 250255Z AUTO 05006KT 2 1/2SM BKN022 OVC031 16/15 A2973 RMK AO1 SLP063
SPECI CYNL 250241Z AUTO 05005KT 9SM FEW003 BKN024 OVC029 16/15 A2972 RMK AO1 SLP062
SPECI CYNL 250232Z AUTO 07005KT 3SM FEW003 OVC026 16/15 A2973 RMK AO1 SLP063
SPECI CYNL 250231Z AUTO 07005KT 2SM FEW003 OVC027 16/15 A2973 RMK AO1 SLP063
SPECI CYNL 250228Z AUTO 07006KT 1 1/2SM FEW003 OVC027 16/15 A2973 RMK AO1 SLP064
SPECI CYNL 250226Z AUTO 06007KT 1 1/4SM FEW003 OVC027 16/15 A2973 RMK AO1 SLP064
SPECI CYNL 250224Z AUTO 07007KT 1 3/4SM VV025 16/15 A2973 RMK AO1 SLP064
SPECI CYNL 250221Z AUTO 07009KT 1 3/4SM VV024 16/15 A2973 RMK AO1 SLP064
SPECI CYNL 250216Z AUTO 09007KT 1 3/4SM BKN027 OVC037 16/15 A2973 RMK AO1 SLP064
SPECI CYNL 250215Z AUTO 09007KT 2SM BKN027 OVC037 16/15 A2973 RMK AO1 SLP063
METAR CYNL 250200Z AUTO 09010KT 9SM OVC025 18/14 A2973 RMK AO1 SLP061
SPECI CYNL 250152Z AUTO 08007KT 9SM OVC025 18/13 A2972 RMK AO1 SLP060
SPECI CYNL 250122Z AUTO 05009KT 9SM BKN024 18/13 A2972 RMK AO1 SLP057
SPECI CYNL 250120Z AUTO 05009KT 9SM SCT024 BKN029 18/13 A2972 RMK AO1 SLP057
METAR CYNL 250100Z AUTO 05009KT 9SM FEW024 BKN047 18/13 A2972 RMK AO1 SLP058
SPECI CYNL 250005Z AUTO 07009KT 9SM SCT029 BKN050 19/13 A2972 RMK AO1 SLP059
METAR CYNL 250000Z AUTO 06010KT 9SM BKN029 BKN050 19/13 A2972 RMK AO1 SLP059
METAR CYNL 242300Z AUTO 06008KT 9SM BKN028 OVC043 19/13 A2973 RMK AO1 SLP060
METAR CYNL 242200Z AUTO 06008KT 9SM OVC025 18/13 A2974 RMK AO1 SLP063
SPECI CYNL 242130Z AUTO 07010KT 9SM OVC025 18/13 A2974 RMK AO1 SLP065
SPECI CYNL 242127Z AUTO 08010KT 9SM BKN023 OVC040 18/13 A2974 RMK AO1 SLP065
SPECI CYNL 242126Z AUTO 08009KT 9SM SCT022 BKN027 OVC040 18/13 A2974 RMK AO1 SLP065
METAR CYNL 242100Z AUTO 09009KT 9SM OVC020 18/13 A2974 RMK AO1 SLP065
SPECI CYNL 242036Z AUTO 08010G17KT 9SM BKN018 18/13 A2974 RMK AO1 SLP065
SPECI CYNL 242034Z AUTO 08011G17KT 9SM SCT018 BKN160 18/13 A2974 RMK AO1 SLP065
METAR CYNL 242000Z AUTO 07012G17KT 9SM OVC015 17/13 A2974 RMK AO1 SLP066
SPECI CYNL 241955Z AUTO 07013KT 9SM OVC015 17/13 A2974 RMK AO1 PRESFR SLP066
METAR CYNL 241900Z AUTO 07011G16KT 9SM OVC011 16/13 A2975 RMK AO1 PRESFR SLP070
SPECI CYNL 241826Z AUTO 06009G16KT 9SM OVC010 16/13 A2976 RMK AO1 SLP075
METAR CYNL 241800Z AUTO 07011G17KT 9SM OVC008 15/13 A2977 RMK AO1 SLP078
METAR CYNL 241700Z AUTO 08010KT 9SM OVC007 15/13 A2977 RMK AO1 SLP079
SPECI CYNL 241631Z AUTO 06012KT 9SM OVC005 14/13 A2977 RMK AO1 SLP078
METAR CYNL 241600Z AUTO 05010KT 9SM OVC004 14/13 A2978 RMK AO1 SLP081
SPECI CYNL 241532Z AUTO 05010KT 9SM OVC003 14/13 A2978 RMK AO1 SLP079
SPECI CYNL 241529Z AUTO 05009KT 9SM OVC002 14/13 A2978 RMK AO1 SLP079
SPECI CYNL 241528Z AUTO 06009KT 9SM OVC003 14/13 A2978 RMK AO1 SLP079
METAR CYNL 241500Z AUTO 08011KT 9SM OVC002 13/13 A2979 RMK AO1 SLP083
METAR CYNL 241400Z AUTO 06009KT 9SM OVC002 13/13 A2980 RMK AO1 SLP084
SPECI CYNL 241305Z AUTO 06010KT 3SM OVC002 13/13 A2981 RMK AO1 SLP087
METAR CYNL 241300Z AUTO 06008KT 2SM OVC002 13/13 A2981 RMK AO1 SLP087
SPECI CYNL 241258Z AUTO 07011KT 2 1/2SM OVC002 13/13 A2981 RMK AO1 SLP085
SPECI CYNL 241254Z AUTO 06010KT 3SM OVC002 13/13 A2981 RMK AO1 SLP085
SPECI CYNL 241252Z AUTO 06010KT 2 1/2SM OVC002 13/13 A2981 RMK AO1 SLP085
SPECI CYNL 241249Z AUTO 06011KT 1 3/4SM OVC002 13/13 A2981 RMK AO1 SLP085
SPECI CYNL 241247Z AUTO 06011KT 2 1/2SM OVC002 13/13 A2981 RMK AO1 SLP085
SPECI CYNL 241246Z AUTO 06010KT 3SM OVC002 13/13 A2981 RMK AO1 SLP085
SPECI CYNL 241241Z AUTO 06008KT 2 1/2SM OVC002 13/13 A2981 RMK AO1 SLP084
SPECI CYNL 241235Z AUTO 06007KT 3SM OVC002 13/13 A2981 RMK AO1 SLP084
SPECI CYNL 241232Z AUTO 06007KT 2 1/2SM OVC002 13/13 A2981 RMK AO1 SLP085
SPECI CYNL 241219Z AUTO 06009KT 3SM OVC002 13/13 A2981 RMK AO1 SLP084
METAR CYNL 232200Z AUTO 18005KT 9SM FEW110 18/13 A2977 RMK AO1 SLP074
METAR CYNL 232100Z AUTO 22008KT 9SM FEW110 21/14 A2977 RMK AO1 SLP069
METAR CYNL 231800Z AUTO 17007KT 9SM CLR 23/12 A2978 RMK AO1 SLP073
METAR CYNL 231700Z AUTO 17006KT 9SM CLR 22/13 A2979 RMK AO1 SLP076
METAR CYNL 231600Z AUTO 22007KT 9SM FEW080 SCT210 21/12 A2979 RMK AO1 SLP077
METAR CYNL 231500Z AUTO 24005KT 9SM CLR 19/14 A2980 RMK AO1 SLP082
METAR CYNL 231400Z AUTO 25003KT 9SM FEW074 BKN090 16/13 A2980 RMK AO1 SLP084
METAR CYNL 231300Z AUTO 21004KT 9SM SCT088 17/13 A2980 RMK AO1 SLP084
METAR CYNL 231200Z AUTO 22004KT 9SM FEW090 16/13 A2981 RMK AO1 SLP088
METAR CYNL 231100Z AUTO 23005KT 9SM CLR 15/12 A2981 RMK AO1 SLP083
METAR CYNL 231000Z AUTO 22005KT 9SM CLR 14/11 A2981 RMK AO1 SLP081
METAR CYNL 230900Z AUTO 19005KT 9SM FEW120 16/12 A2982 RMK AO1 PRESFR SLP081
METAR CYNL 230800Z AUTO 22007KT 9SM SCT064 16/12 A2985 RMK AO1 SLP095
SPECI CYNL 230727Z AUTO 24007KT 4SM FEW003 BKN064 BKN088 16/13 A2985 RMK AO1 SLP097
SPECI CYNL 230725Z AUTO 24007KT 1 3/4SM FEW003 BKN064 BKN088 16/12 A2985 RMK AO1 SLP097
SPECI CYNL 230724Z AUTO 24007KT 2 1/2SM BKN064 BKN088 16/12 A2985 RMK AO1 SLP097
METAR CYNL 230700Z AUTO 23006KT 9SM FEW088 SCT140 16/12 A2984 RMK AO1 SLP093
METAR CYNL 230600Z AUTO 21007KT 9SM SCT120 16/11 A2984 RMK AO1 SLP092
METAR CYNL 230500Z AUTO 23006KT 9SM CLR 16/12 A2986 RMK AO1 SLP098
METAR CYNL 230400Z AUTO 26004KT 9SM FEW080 SCT110 16/12 A2987 RMK AO1 SLP104
METAR CYNL 230300Z AUTO 22004KT 160V280 9SM FEW092 16/13 A2986 RMK AO1 SLP099
METAR CYNL 230200Z AUTO 21004KT 9SM CLR 16/13 A2987 RMK AO1 PRESFR SLP106
SPECI CYNL 230104Z AUTO 32010G20KT 3SM BKN062 17/14 A2989 RMK AO1 WSHFT (00)53 PRESRR SLP113
METAR CYNL 230100Z AUTO 32011G20KT 2 1/2SM BKN062 BKN072 17/14 A2989 RMK AO1 WSHFT (00)53 PRESRR SLP114
SPECI CYNL 230053Z AUTO 30011KT 3SM FEW006 BKN062 19/14 A2990 RMK AO1 WSHFT (00)53 SLP118
SPECI CYNL 230046Z AUTO 34009G15KT 9SM FEW005 BKN062 20/13 A2989 RMK AO1 SLP111
METAR CYNL 230000Z AUTO 22006KT 9SM FEW100 24/09 A2988 RMK AO1 SLP105
METAR CYNL 222300Z AUTO 24007KT 9SM FEW210 25/08 A2988 RMK AO1 SLP107
METAR CYNL 222200Z AUTO 23008G16KT 9SM CLR 26/08 A2988 RMK AO1 PRESFR SLP108
METAR CYNL 222100Z AUTO 17008KT 9SM FEW190 25/07 A2990 RMK AO1 SLP115
SPECI CYNL 222021Z AUTO 20005KT 9SM SCT096 24/06 A2992 RMK AO1 SLP120
SPECI CYNL 222019Z AUTO 19007KT 2SM SCT096 24/06 A2992 RMK AO1 SLP121
METAR CYNL 222000Z AUTO 21007KT 9SM BKN096 23/05 A2992 RMK AO1 SLP122
METAR CYNL 221900Z AUTO 22010KT 9SM FEW210 24/04 A2992 RMK AO1 SLP119
METAR CYNL 221800Z AUTO 22007KT 9SM FEW140 23/04 A2993 RMK AO1 SLP126
METAR CYNL 221700Z AUTO 19007G17KT 9SM CLR 23/06 A2994 RMK AO1 SLP128
METAR CYNL 221600Z AUTO 21007KT 9SM CLR 22/08 A2995 RMK AO1 SLP131
METAR CYNL 221500Z AUTO 20007KT 9SM CLR 21/08 A2996 RMK AO1 SLP136
METAR CYNL 221400Z AUTO 20005KT 9SM CLR 19/10 A2997 RMK AO1 SLP138
METAR CYNL 221300Z AUTO 24004KT 9SM CLR 15/09 A2997 RMK AO1 SLP138
METAR CYNL 221200Z AUTO 22002KT 9SM CLR 13/07 A2997 RMK AO1 SLP139
METAR CYNL 221100Z AUTO 21003KT 9SM CLR 11/06 A2996 RMK AO1 SLP138
METAR CYNL 221000Z AUTO 22002KT 9SM CLR 12/07 A2996 RMK AO1 SLP135
METAR CYNL 220900Z AUTO 19005KT 9SM CLR 13/05 A2996 RMK AO1 SLP135
METAR CYNL 220800Z AUTO 21003KT 9SM CLR 13/05 A2996 RMK AO1 SLP135
SPECI CYNL 220709Z AUTO 18003KT 3SM CLR 13/06 A2995 RMK AO1 SLP134
SPECI CYNL 220708Z AUTO 17002KT 2SM CLR 13/06 A2995 RMK AO1 SLP134
SPECI CYNL 220707Z AUTO 00000KT 1 1/2SM CLR 13/06 A2995 RMK AO1 SLP134
SPECI CYNL 220705Z AUTO 00000KT 1 1/4SM CLR 13/06 A2995 RMK AO1 SLP134
SPECI CYNL 220704Z AUTO 00000KT 1 1/2SM CLR 13/06 A2995 RMK AO1 SLP134
METAR CYNL 220700Z AUTO 00000KT 6SM CLR 13/05 A2995 RMK AO1 SLP134
SPECI CYNL 220621Z AUTO 00000KT 4SM CLR 14/05 A2995 RMK AO1 SLP131
SPECI CYNL 220619Z AUTO 00000KT 2 1/2SM CLR 14/05 A2995 RMK AO1 SLP131
METAR CYNL 220600Z AUTO 16005KT 9SM CLR 15/03 A2995 RMK AO1 SLP131
METAR CYNL 220500Z AUTO 15004KT 9SM CLR 15/04 A2995 RMK AO1 SLP132
METAR CYNL 220400Z AUTO 13005KT 9SM CLR 16/03 A2995 RMK AO1 SLP132
METAR CYNL 220300Z AUTO 11005KT 9SM CLR 18/04 A2995 RMK AO1 SLP130
METAR CYNL 220200Z AUTO 13008KT 9SM CLR 21/02 A2994 RMK AO1 SLP126
METAR CYNL 220100Z AUTO 15005KT 9SM CLR 23/01 A2994 RMK AO1 SLP126
METAR CYNL 220000Z AUTO 16007KT 9SM CLR 23/00 A2994 RMK AO1 SLP130
METAR CYNL 212300Z AUTO 21004KT 9SM CLR 23/M01 A2995 RMK AO1 SLP136
METAR CYNL 212200Z AUTO 14003KT 9SM CLR 23/00 A2996 RMK AO1 SLP144
METAR CYNL 212100Z AUTO 16004KT 9SM CLR 22/00 A2997 RMK AO1 SLP147
METAR CYNL 212000Z AUTO 20006KT 160V240 9SM CLR 22/01 A2998 RMK AO1 SLP152
METAR CYNL 211900Z AUTO 00000KT 9SM CLR 21/M01 A2999 RMK AO1 SLP155
METAR CYNL 211800Z AUTO 10006KT 060V140 9SM CLR 20/00 A3000 RMK AO1 SLP160
METAR CYNL 211700Z AUTO 13006KT 100V160 9SM CLR 20/02 A3001 RMK AO1 SLP162
METAR CYNL 211600Z AUTO 12002KT 9SM CLR 19/02 A3002 RMK AO1 SLP166
METAR CYNL 211500Z AUTO 17004KT 9SM CLR 18/03 A3003 RMK AO1 SLP166
METAR CYNL 211400Z AUTO 17004KT 9SM CLR 16/06 A3003 RMK AO1 SLP162
METAR CYNL 211300Z AUTO 23003KT 9SM CLR 13/07 A3003 RMK AO1 SLP164
METAR CYNL 211200Z AUTO 00000KT 9SM CLR 10/08 A3004 RMK AO1 SLP171
SPECI CYNL 211119Z AUTO 24003KT 3SM CLR 07/06 A3004 RMK AO1 SLP173
SPECI CYNL 211118Z AUTO 24003KT 1 3/4SM CLR 07/06 A3004 RMK AO1 SLP173
SPECI CYNL 211117Z AUTO 24003KT 2SM CLR 07/06 A3004 RMK AO1 SLP173
METAR CYNL 211100Z AUTO 23003KT 9SM CLR 06/05 A3004 RMK AO1 SLP174
SPECI CYNL 211058Z AUTO 24003KT 9SM CLR 06/05 A3004 RMK AO1 SLP174
SPECI CYNL 211057Z AUTO 24003KT 2 1/2SM CLR 06/05 A3004 RMK AO1 SLP174
SPECI CYNL 211056Z AUTO 24003KT 3/4SM CLR 06/05 A3004 RMK AO1 SLP174
SPECI CYNL 211054Z AUTO 23003KT 5/8SM CLR 06/05 A3004 RMK AO1 SLP174
SPECI CYNL 211052Z AUTO 23003KT 1 3/4SM CLR 06/05 A3004 RMK AO1 SLP174
SPECI CYNL 211049Z AUTO 23003KT 1/4SM CLR 06/05 A3004 RMK AO1 SLP174
SPECI CYNL 211036Z AUTO 21003KT 1/8SM CLR 05/04 A3004 RMK AO1 SLP174
SPECI CYNL 211034Z AUTO 21003KT 1/2SM CLR 05/04 A3004 RMK AO1 SLP174
SPECI CYNL 211033Z AUTO 21003KT 1SM CLR 05/04 A3004 RMK AO1 SLP174
SPECI CYNL 211010Z AUTO 23003KT 9SM CLR 05/04 A3003 RMK AO1 SLP173
SPECI CYNL 211009Z AUTO 23003KT 2 1/2SM CLR 05/04 A3003 RMK AO1 SLP173
SPECI CYNL 211008Z AUTO 23003KT 1 1/4SM CLR 05/04 A3003 RMK AO1 SLP173
SPECI CYNL 211007Z AUTO 22003KT 1 1/2SM CLR 05/04 A3003 RMK AO1 SLP173
SPECI CYNL 211005Z AUTO 23003KT 9SM CLR 05/04 A3003 RMK AO1 SLP173
SPECI CYNL 211004Z AUTO 23003KT 1 1/4SM CLR 05/04 A3003 RMK AO1 SLP173
SPECI CYNL 211003Z AUTO 22003KT 1/2SM CLR 05/04 A3003 RMK AO1 SLP173
METAR CYNL 211000Z AUTO 23003KT 0SM CLR 05/05 A3003 RMK AO1 SLP173
SPECI CYNL 210945Z AUTO 25003KT 1/8SM CLR 05/04 A3003 RMK AO1 SLP173
SPECI CYNL 210944Z AUTO 26002KT 3/4SM CLR 05/04 A3003 RMK AO1 SLP173
SPECI CYNL 210907Z AUTO 30002KT 4SM CLR 05/04 A3003 RMK AO1 SLP173
SPECI CYNL 210906Z AUTO 29002KT 2 1/2SM CLR 05/04 A3003 RMK AO1 SLP173
METAR CYNL 210900Z AUTO 00000KT 6SM CLR 05/04 A3003 RMK AO1 SLP173
SPECI CYNL 210824Z AUTO 00000KT 9SM CLR 06/05 A3002 RMK AO1 SLP170
SPECI CYNL 210823Z AUTO 00000KT 2 1/2SM CLR 06/05 A3002 RMK AO1 SLP170
SPECI CYNL 210822Z AUTO 00000KT 1/4SM CLR 06/05 A3002 RMK AO1 SLP170
SPECI CYNL 210818Z AUTO 00000KT 1/8SM CLR 06/05 A3002 RMK AO1 SLP169
SPECI CYNL 210817Z AUTO 00000KT 1/4SM CLR 06/05 A3002 RMK AO1 SLP169
METAR CYNL 210800Z AUTO 00000KT 9SM CLR 06/05 A3002 RMK AO1 SLP168
METAR CYNL 210700Z AUTO 00000KT 9SM CLR 07/06 A3001 RMK AO1 SLP166
METAR CYNL 210600Z AUTO 00000KT 9SM CLR 08/05 A3002 RMK AO1 SLP168
METAR CYNL 210500Z AUTO 00000KT 9SM CLR 09/04 A3002 RMK AO1 SLP169
SPECI CYNL 210440Z AUTO 00000KT 4SM CLR 09/06 A3002 RMK AO1 SLP169
SPECI CYNL 210439Z AUTO 33002KT 2 1/2SM CLR 09/06 A3002 RMK AO1 SLP169
SPECI CYNL 210438Z AUTO 33002KT 1 3/4SM CLR 09/06 A3002 RMK AO1 SLP169
SPECI CYNL 210428Z AUTO 00000KT 1 1/4SM CLR 10/06 A3002 RMK AO1 SLP167
SPECI CYNL 210427Z AUTO 00000KT 2 1/2SM CLR 10/06 A3002 RMK AO1 SLP167
METAR CYNL 210400Z AUTO 31002KT 9SM CLR 11/05 A3002 RMK AO1 SLP167
METAR CYNL 210300Z AUTO 00000KT 9SM CLR 17/03 A3001 RMK AO1 SLP158
METAR CYNL 210200Z AUTO 33003KT 9SM CLR 18/01 A3000 RMK AO1 SLP156
METAR CYNL 210100Z AUTO 26003KT 9SM CLR 18/01 A3000 RMK AO1 SLP155
METAR CYNL 210000Z AUTO 30009KT 250V350 9SM CLR 18/M01 A3001 RMK AO1 SLP159
METAR CYNL 202300Z AUTO 29005KT 250V330 9SM CLR 18/01 A3001 RMK AO1 SLP161
METAR CYNL 202200Z AUTO 28004KT 9SM CLR 18/01 A3002 RMK AO1 SLP168
METAR CYNL 202100Z AUTO ///// 9SM CLR 17/01 A3003 RMK AO1 SLP171
METAR CYNL 202000Z AUTO ///// 9SM CLR 16/02 A3003 RMK AO1 SLP174
METAR CYNL 201900Z AUTO ///// 9SM CLR 16/01 A3004 RMK AO1 SLP177
METAR CYNL 201800Z AUTO ///// 9SM CLR 15/02 A3004 RMK AO1 SLP177
METAR CYNL 201700Z AUTO ///// 9SM CLR 14/02 A3004 RMK AO1 SLP177
METAR CYNL 201600Z AUTO ///// 9SM CLR 13/02 A3003 RMK AO1 SLP176
METAR CYNL 201500Z AUTO ///// 9SM CLR 12/02 A3003 RMK AO1 SLP171
METAR CYNL 201400Z AUTO ///// 9SM CLR 11/03 A3002 RMK AO1 SLP169
METAR CYNL 201300Z AUTO ///// 9SM CLR 10/04 A3001 RMK AO1 SLP163
METAR CYNL 201200Z AUTO ///// 9SM CLR 08/04 A3000 RMK AO1 PRESRR SLP162
METAR CYNL 201100Z AUTO ///// 9SM CLR 06/03 A2998 RMK AO1 SLP157
METAR CYNL 201000Z AUTO ///// 9SM CLR 06/02 A2996 RMK AO1 SLP151
METAR CYNL 200900Z AUTO ///// 9SM CLR 06/02 A2995 RMK AO1 SLP146
METAR CYNL 200800Z AUTO ///// 9SM CLR 06/01 A2994 RMK AO1 SLP140
METAR CYNL 200700Z AUTO ///// 9SM CLR 07/01 A2992 RMK AO1 PRESRR SLP139
METAR CYNL 200600Z AUTO ///// 9SM CLR 07/02 A2990 RMK AO1 SLP129
METAR CYNL 200500Z AUTO ///// 9SM CLR 08/03 A2989 RMK AO1 PRESRR SLP124
METAR CYNL 200400Z AUTO ///// 9SM CLR 11/03 A2986 RMK AO1 PRESRR SLP115
METAR CYNL 200300Z AUTO ///// 9SM CLR 14/04 A2983 RMK AO1 PRESRR SLP102
METAR CYNL 200200Z AUTO ///// 9SM FEW036 16/06 A2980 RMK AO1 SLP090
METAR CYNL 200100Z AUTO ///// 9SM CLR 15/06 A2979 RMK AO1 SLP087
METAR CYNL 200000Z AUTO ///// 9SM FEW068 16/06 A2978 RMK AO1 SLP083
METAR CYNL 192300Z AUTO ///// 9SM FEW070 16/06 A2977 RMK AO1 PRESRR SLP083
METAR CYNL 192200Z AUTO ///// 9SM CLR 17/05 A2975 RMK AO1 SLP074
SPECI CYNL 192121Z AUTO ///// 9SM FEW013 SCT092 14/08 A2975 RMK AO1 SLP077
SPECI CYNL 192118Z AUTO ///// 2 1/2SM FEW023 15/08 A2975 RMK AO1 SLP075
METAR CYNL 192100Z AUTO ///// 9SM CLR 17/08 A2972 RMK AO1 SLP066
METAR CYNL 192000Z AUTO ///// 9SM FEW032 SCT170 14/09 A2972 RMK AO1 SLP067
SPECI CYNL 191938Z AUTO ///// 5SM FEW003 BKN042 12/09 A2974 RMK AO1 SLP074
SPECI CYNL 191937Z AUTO ///// 2 1/2SM FEW003 BKN042 12/09 A2974 RMK AO1 SLP075
SPECI CYNL 191936Z AUTO ///// 1 1/4SM FEW003 BKN042 12/09 A2974 RMK AO1 SLP076
SPECI CYNL 191933Z AUTO ///// 1 1/4SM FEW026 BKN041 13/10 A2974 RMK AO1 SLP075
SPECI CYNL 191932Z AUTO ///// 1 3/4SM FEW025 BKN043 14/10 A2974 RMK AO1 SLP073
SPECI CYNL 191931Z AUTO ///// 2 1/2SM FEW026 BKN043 14/09 A2973 RMK AO1 SLP071
METAR CYNL 191900Z AUTO ///// 9SM SCT040 16/06 A2970 RMK AO1 SLP059
METAR CYNL 191800Z AUTO ///// 9SM FEW050 15/06 A2972 RMK AO1 SLP064
METAR CYNL 191700Z AUTO ///// 9SM FEW039 SCT054 13/07 A2973 RMK AO1 SLP068
METAR CYNL 191600Z AUTO ///// 9SM FEW038 BKN068 12/06 A2973 RMK AO1 SLP069
METAR CYNL 191500Z AUTO ///// 9SM 12/04 A RMK AO1 SLPNO
METAR CYNL 191406Z AUTO ///// 9SM A2976 RMK AO1 SLP076
METAR CYNL 191300Z AUTO ///// 9SM CLR 12/03 A2976 RMK AO1 SLP079
METAR CYNL 191200Z AUTO ///// 9SM CLR 10/03 A2978 RMK AO1 SLP086
METAR CYNL 191100Z AUTO ///// 9SM CLR 08/03 A2980 RMK AO1 SLP092
METAR CYNL 191000Z AUTO ///// 9SM CLR 08/04 A2981 RMK AO1 SLP095
METAR CYNL 190900Z AUTO ///// 9SM CLR 09/04 A2981 RMK AO1 SLP097
METAR CYNL 190800Z AUTO ///// 9SM CLR 09/04 A2982 RMK AO1 SLP101
METAR CYNL 190700Z AUTO ///// 9SM CLR 10/03 A2984 RMK AO1 SLP107
METAR CYNL 190600Z AUTO ///// 9SM CLR 10/03 A2984 RMK AO1 SLP110
METAR CYNL 190500Z AUTO ///// 9SM FEW056 11/03 A2985 RMK AO1 SLP112
METAR CYNL 190400Z AUTO ///// 9SM CLR 11/03 A2986 RMK AO1 SLP114
METAR CYNL 190300Z AUTO ///// 9SM SCT084 13/02 A2987 RMK AO1 SLP115
METAR CYNL 190100Z AUTO ///// 9SM SCT082 15/M01 A2989 RMK AO1 SLP123
METAR CYNL 190000Z AUTO ///// 9SM FEW074 15/M01 A2990 RMK AO1 SLP128
METAR CYNL 182300Z AUTO ///// 9SM FEW078 15/01 A2992 RMK AO1 SLP134
METAR CYNL 182200Z AUTO ///// 9SM CLR 15/M01 A2993 RMK AO1 SLP139
METAR CYNL 182100Z AUTO ///// 9SM FEW080 14/M00 A2993 RMK AO1 SLP142
METAR CYNL 182000Z AUTO ///// 9SM FEW086 13/M01 A2994 RMK AO1 SLP146
SPECI CYNL 181931Z AUTO ///// 8SM FEW016 SCT048 BKN220 11/01 A2995 RMK AO1 SLP151
SPECI CYNL 181930Z AUTO ///// 2 1/2SM FEW009 BKN049 11/03 A2995 RMK AO1 SLP151
SPECI CYNL 181928Z AUTO ///// 1 3/4SM FEW014 SCT048 BKN074 11/04 A2995 RMK AO1 SLP152
METAR CYNL 181900Z AUTO ///// 5SM FEW015 BKN050 11/04 A2995 RMK AO1 SLP152
SPECI CYNL 181812Z AUTO ///// 5SM FEW006 11/01 A2996 RMK AO1 SLP154
METAR CYNL 181800Z AUTO ///// 9SM FEW054 13/02 A2995 RMK AO1 SLP150
METAR CYNL 181700Z AUTO ///// 9SM FEW041 12/02 A2995 RMK AO1 SLP148
METAR CYNL 181600Z AUTO ///// 9SM CLR 12/02 A2995 RMK AO1 SLP149
METAR CYNL 181500Z AUTO ///// 9SM FEW036 11/02 A2995 RMK AO1 SLP149
SPECI CYNL 181408Z AUTO ///// 9SM SCT025 BKN032 10/03 A2995 RMK AO1 SLP150
METAR CYNL 181400Z AUTO ///// 9SM BKN025 10/04 A2995 RMK AO1 SLP150
SPECI CYNL 181358Z AUTO ///// 9SM BKN025 10/04 A2995 RMK AO1 SLP148
SPECI CYNL 181357Z AUTO ///// 9SM SCT024 BKN035 10/04 A2995 RMK AO1 SLP148
SPECI CYNL 181354Z AUTO ///// 9SM BKN025 10/04 A2995 RMK AO1 SLP149
METAR CYNL 181300Z AUTO ///// 9SM CLR 09/04 A2994 RMK AO1 SLP145
METAR CYNL 181200Z AUTO ///// 9SM CLR 08/05 A2993 RMK AO1 SLP139
METAR CYNL 181100Z AUTO ///// 9SM CLR 06/04 A2992 RMK AO1 SLP137
METAR CYNL 181000Z AUTO ///// 9SM CLR 06/04 A2990 RMK AO1 SLP131
METAR CYNL 180900Z AUTO ///// 9SM CLR 07/04 A2989 RMK AO1 SLP129
METAR CYNL 180800Z AUTO ///// 9SM CLR 07/05 A2988 RMK AO1 SLP124
METAR CYNL 180700Z AUTO ///// 9SM CLR 07/06 A2986 RMK AO1 SLP120
METAR CYNL 180600Z AUTO ///// 9SM FEW076 08/05 A2985 RMK AO1 SLP115
METAR CYNL 180500Z AUTO ///// 9SM FEW029 SCT038 09/05 A2983 RMK AO1 PRESRR SLP109
METAR CYNL 180400Z AUTO ///// 9SM FEW050 09/06 A2981 RMK AO1 PRESRR SLP103
METAR CYNL 180300Z AUTO ///// 9SM FEW027 BKN049 09/06 A2979 RMK AO1 SLP097
SPECI CYNL 180242Z AUTO ///// 3SM BKN034 09/05 A2979 RMK AO1 SLP096
SPECI CYNL 180241Z AUTO ///// 2 1/2SM BKN034 09/05 A2979 RMK AO1 SLP096
SPECI CYNL 180234Z AUTO ///// 7SM FEW022 SCT033 BKN043 09/05 A2979 RMK AO1 SLP096
SPECI CYNL 180231Z AUTO ///// 3SM VV029 09/06 A2979 RMK AO1 SLP096
SPECI CYNL 180230Z AUTO ///// 2SM FEW026 SCT034 BKN043 09/06 A2979 RMK AO1 SLP095
SPECI CYNL 180228Z AUTO ///// 1 1/2SM FEW027 SCT035 BKN043 09/06 A2979 RMK AO1 SLP095
SPECI CYNL 180227Z AUTO ///// 2SM FEW027 SCT043 BKN062 10/06 A2979 RMK AO1 SLP094
SPECI CYNL 180201Z AUTO ///// 3SM FEW027 SCT038 10/05 A2977 RMK AO1 SLP088
METAR CYNL 180200Z AUTO ///// 2 1/2SM FEW027 SCT038 10/05 A2977 RMK AO1 SLP089
SPECI CYNL 180159Z AUTO ///// 2 1/2SM FEW027 11/05 A2977 RMK AO1 SLP088
METAR CYNL 180100Z AUTO ///// 9SM FEW040 13/04 A2975 RMK AO1 PRESRR SLP078
METAR CYNL 180000Z AUTO ///// 9SM SCT049 13/03 A2973 RMK AO1 SLP069
METAR CYNL 172300Z AUTO ///// 9SM FEW050 14/02 A2972 RMK AO1 SLP063
METAR CYNL 172200Z AUTO ///// 9SM BKN045 13/03 A2971 RMK AO1 PRESRR SLP058
METAR CYNL 172100Z AUTO ///// 9SM BKN042 12/03 A2968 RMK AO1 PRESRR SLP049
METAR CYNL 172000Z AUTO ///// 9SM BKN039 12/04 A2965 RMK AO1 PRESRR SLP036
METAR CYNL 171900Z AUTO ///// 9SM BKN032 12/04 A2962 RMK AO1 PRESRR SLP027
SPECI CYNL 171848Z AUTO ///// 9SM BKN030 11/04 A2961 RMK AO1 SLP026
SPECI CYNL 171838Z AUTO ///// 9SM BKN029 12/06 A2961 RMK AO1 SLP023
SPECI CYNL 171836Z AUTO ///// 9SM SCT028 BKN034 11/05 A2960 RMK AO1 SLP023
SPECI CYNL 171814Z AUTO ///// 9SM BKN025 BKN033 11/06 A2959 RMK AO1 SLP019
SPECI CYNL 171813Z AUTO ///// 9SM BKN024 11/06 A2959 RMK AO1 SLP019
SPECI CYNL 171812Z AUTO ///// 9SM BKN025 11/05 A2959 RMK AO1 SLP018
METAR CYNL 171800Z AUTO ///// 9SM BKN023 11/06 A2958 RMK AO1 SLP016
SPECI CYNL 171757Z AUTO ///// 9SM BKN022 10/06 A2958 RMK AO1 PRESRR SLP015
SPECI CYNL 171754Z AUTO ///// 9SM SCT020 BKN025 10/06 A2958 RMK AO1 PRESRR SLP014
SPECI CYNL 171714Z AUTO ///// 9SM SCT016 BKN022 BKN029 10/06 A2957 RMK AO1 PRESRR SLP010
METAR CYNL 171700Z AUTO ///// 9SM FEW020 BKN029 09/06 A2956 RMK AO1 PRESRR SLP010
SPECI CYNL 171651Z AUTO ///// 9SM FEW012 SCT020 OVC029 09/06 A2956 RMK AO1 PRESRR SLP009
SPECI CYNL 171650Z AUTO ///// 9SM FEW012 SCT020 BKN023 09/06 A2956 RMK AO1 PRESRR SLP009
SPECI CYNL 171649Z AUTO ///// 9SM FEW012 SCT020 OVC030 09/06 A2956 RMK AO1 PRESRR SLP009
SPECI CYNL 171646Z AUTO ///// 9SM FEW011 BKN019 OVC030 08/06 A2956 RMK AO1 PRESRR SLP009
SPECI CYNL 171640Z AUTO ///// 9SM FEW011 SCT014 OVC030 08/06 A2956 RMK AO1 PRESRR SLP009
SPECI CYNL 171638Z AUTO ///// 9SM FEW011 SCT014 OVC029 08/06 A2956 RMK AO1 PRESRR SLP008
SPECI CYNL 171635Z AUTO ///// 9SM SCT011 OVC030 08/06 A2955 RMK AO1 PRESRR SLP007
SPECI CYNL 171632Z AUTO ///// 9SM SCT011 OVC029 08/06 A2955 RMK AO1 PRESRR SLP007
SPECI CYNL 171630Z AUTO ///// 9SM SCT011 BKN016 OVC029 08/06 A2955 RMK AO1 PRESRR SLP006
SPECI CYNL 171606Z AUTO ///// 9SM FEW008 BKN011 OVC014 08/07 A2953 RMK AO1 PRESRR SLP000
METAR CYNL 171600Z AUTO ///// 7SM SCT011 OVC014 08/06 A2953 RMK AO1 PRESRR SLP999
SPECI CYNL 171540Z AUTO ///// 9SM SCT007 OVC010 08/07 A2952 RMK AO1 PRESRR SLP994
METAR CYNL 171500Z AUTO ///// 5SM SCT006 BKN008 BKN009 09/08 A2948 RMK AO1 PRESRR SLP981
SPECI CYNL 171454Z AUTO ///// 3SM BKN006 BKN009 OVC017 09/08 A2948 RMK AO1 PRESRR SLP978
SPECI CYNL 171451Z AUTO ///// 2 1/2SM BKN005 BKN009 OVC017 09/08 A2948 RMK AO1 PRESRR SLP978
SPECI CYNL 171450Z AUTO ///// 3SM BKN005 BKN009 OVC017 09/08 A2948 RMK AO1 PRESRR SLP978
SPECI CYNL 171449Z AUTO ///// 2 1/2SM BKN006 BKN009 OVC017 09/08 A2948 RMK AO1 PRESRR SLP977
SPECI CYNL 171445Z AUTO ///// 1 3/4SM BKN006 BKN010 OVC017 09/09 A2947 RMK AO1 PRESRR SLP976
SPECI CYNL 171440Z AUTO ///// 2 1/2SM SCT006 BKN010 BKN017 10/09 A2947 RMK AO1 PRESRR SLP975
SPECI CYNL 171439Z AUTO ///// 3SM SCT006 BKN010 BKN017 10/09 A2947 RMK AO1 PRESRR SLP975
SPECI CYNL 171438Z AUTO ///// 3SM VV010 10/09 A2947 RMK AO1 PRESRR SLP975
SPECI CYNL 171437Z AUTO ///// 3SM VV009 10/09 A2947 RMK AO1 PRESRR SLP974
SPECI CYNL 171434Z AUTO ///// 3SM VV014 10/09 A2946 RMK AO1 PRESRR SLP973
SPECI CYNL 171429Z AUTO ///// 3SM SCT008 BKN016 BKN026 10/09 A2946 RMK AO1 PRESRR SLP972
SPECI CYNL 171424Z AUTO ///// 4SM BKN007 OVC026 10/09 A2946 RMK AO1 PRESRR SLP971
SPECI CYNL 171423Z AUTO ///// 4SM SCT008 BKN015 OVC026 10/09 A2946 RMK AO1 PRESRR SLP971
SPECI CYNL 171422Z AUTO ///// 4SM SCT008 BKN013 OVC027 10/09 A2946 RMK AO1 PRESRR SLP971
SPECI CYNL 171421Z AUTO ///// 3SM SCT008 BKN015 OVC027 10/09 A2946 RMK AO1 PRESRR SLP971
SPECI CYNL 171420Z AUTO ///// 3SM SCT008 BKN014 BKN027 10/09 A2946 RMK AO1 PRESRR SLP970
SPECI CYNL 171418Z AUTO ///// 3SM SCT008 BKN015 BKN024 10/09 A2946 RMK AO1 PRESRR SLP970
SPECI CYNL 171416Z AUTO ///// 3SM VV024 10/09 A2946 RMK AO1 PRESRR SLP970
SPECI CYNL 171412Z AUTO ///// 3SM VV026 10/09 A2945 RMK AO1 PRESRR SLP969
SPECI CYNL 171411Z AUTO ///// 2 1/2SM VV025 10/10 A2945 RMK AO1 PRESRR SLP969
SPECI CYNL 171406Z AUTO ///// 2SM VV015 11/09 A2945 RMK AO1 PRESRR SLP969
SPECI CYNL 171403Z AUTO ///// 2SM VV011 11/10 A2945 RMK AO1 PRESRR SLP968
METAR CYNL 171400Z AUTO ///// 1 3/4SM VV013 11/10 A2945 RMK AO1 PRESRR SLP968
SPECI CYNL 171359Z AUTO ///// 1 3/4SM VV015 11/10 A2945 RMK AO1 PRESRR SLP968
SPECI CYNL 171356Z AUTO ///// 2SM VV016 11/10 A2945 RMK AO1 SLP967
SPECI CYNL 171353Z AUTO ///// 1 1/2SM VV016 11/10 A2945 RMK AO1 SLP967
SPECI CYNL 171352Z AUTO ///// 1 1/4SM VV015 11/10 A2945 RMK AO1 SLP967
SPECI CYNL 171351Z AUTO ///// 1SM VV014 11/10 A2945 RMK AO1 SLP967
SPECI CYNL 171348Z AUTO ///// 1 1/4SM BKN008 OVC012 11/10 A2945 RMK AO1 SLP967
SPECI CYNL 171347Z AUTO ///// 1 3/4SM BKN008 OVC012 11/10 A2945 RMK AO1 SLP966
SPECI CYNL 171335Z AUTO ///// 9SM BKN008 BKN011 OVC013 11/10 A2944 RMK AO1 SLP963
SPECI CYNL 171317Z AUTO ///// 9SM SCT007 BKN010 OVC029 11/10 A2943 RMK AO1 SLP959
METAR CYNL 171300Z AUTO ///// 6SM FEW001 SCT006 BKN009 12/11 A2943 RMK AO1 SLP957
SPECI CYNL 171258Z AUTO ///// 6SM FEW001 BKN007 BKN010 12/11 A2943 RMK AO1 SLP956
SPECI CYNL 171257Z AUTO ///// 5SM FEW001 SCT007 BKN010 12/11 A2943 RMK AO1 SLP956
SPECI CYNL 171252Z AUTO ///// 9SM FEW001 SCT007 BKN009 12/11 A2942 RMK AO1 SLP955
SPECI CYNL 171251Z AUTO ///// 9SM FEW001 SCT007 BKN011 12/11 A2942 RMK AO1 SLP954
SPECI CYNL 171250Z AUTO ///// 9SM FEW001 BKN007 BKN025 12/11 A2942 RMK AO1 SLP954
SPECI CYNL 171247Z AUTO ///// 8SM FEW001 SCT006 BKN010 12/11 A2942 RMK AO1 SLP953
SPECI CYNL 171245Z AUTO ///// 6SM VV010 12/11 A2942 RMK AO1 SLP953
METAR CYNL 170500Z AUTO ///// 9SM CLR 17/11 A2947 RMK AO1 SLP961
METAR CYNL 170400Z AUTO ///// 9SM CLR 18/10 A2947 RMK AO1 SLP961
METAR CYNL 170300Z AUTO ///// 9SM CLR 19/10 A2947 RMK AO1 SLP963
METAR CYNL 170200Z AUTO ///// 9SM CLR 20/11 A2945 RMK AO1 SLP958
METAR CYNL 170100Z AUTO ///// 9SM CLR 21/10 A2947 RMK AO1 SLP963
METAR CYNL 170000Z AUTO ///// 9SM CLR 22/11 A2947 RMK AO1 PRESFR SLP964
METAR CYNL 162300Z AUTO ///// 9SM FEW040 23/12 A2951 RMK AO1 SLP975
METAR CYNL 162200Z AUTO ///// 9SM FEW160 23/12 A2950 RMK AO1 SLP974
METAR CYNL 162100Z AUTO ///// 9SM FEW140 23/12 A2949 RMK AO1 SLP972
METAR CYNL 162000Z AUTO ///// 9SM FEW180 24/12 A2949 RMK AO1 SLP969
METAR CYNL 161900Z AUTO ///// 9SM FEW050 25/12 A2950 RMK AO1 SLP972
METAR CYNL 161800Z AUTO ///// 9SM CLR 25/16 A2951 RMK AO1 SLP974
METAR CYNL 161700Z AUTO ///// 9SM CLR 24/17 A2952 RMK AO1 SLP978
METAR CYNL 161600Z AUTO ///// 9SM CLR 21/17 A2953 RMK AO1 PRESFR SLP983
METAR CYNL 161300Z AUTO ///// 9SM FEW007 SCT052 18/15 A2964 RMK AO1 SLP020
SPECI CYNL 161256Z AUTO ///// 9SM FEW007 SCT050 BKN078 18/15 A2962 RMK AO1 PRESFR SLP015
SPECI CYNL 161252Z AUTO ///// 4SM FEW013 SCT052 BKN078 18/15 A2960 RMK AO1 PRESFR SLP005
SPECI CYNL 161249Z AUTO ///// 2 1/2SM FEW010 SCT052 BKN078 18/15 A2961 RMK AO1 PRESFR SLP010
SPECI CYNL 161245Z AUTO ///// 3SM FEW007 SCT052 18/15 A2962 RMK AO1 PRESFR SLP014
SPECI CYNL 161241Z AUTO ///// 2SM FEW007 SCT080 19/15 A2964 RMK AO1 PRESFR SLP018
SPECI CYNL 161240Z AUTO ///// 3SM FEW007 SCT080 19/15 A2964 RMK AO1 PRESFR SLP018
METAR CYNL 161200Z AUTO ///// 9SM FEW110 19/13 A2964 RMK AO1 PRESFR SLP017
METAR CYNL 161100Z AUTO ///// 9SM SCT110 18/13 A2968 RMK AO1 PRESFR SLP031
METAR CYNL 161000Z AUTO ///// 9SM FEW130 18/13 A2971 RMK AO1 PRESFR SLP045
METAR CYNL 160900Z AUTO ///// 9SM CLR 19/12 A2975 RMK AO1 PRESFR SLP057
METAR CYNL 160800Z AUTO ///// 9SM CLR 19/12 A2979 RMK AO1 PRESFR SLP071
METAR CYNL 160700Z AUTO ///// 9SM CLR 19/12 A2983 RMK AO1 PRESFR SLP083
METAR CYNL 160600Z AUTO ///// 9SM CLR 20/11 A2985 RMK AO1 SLP090
METAR CYNL 160500Z AUTO ///// 9SM CLR 19/12 A2986 RMK AO1 PRESFR SLP097
METAR CYNL 160400Z AUTO ///// 9SM CLR 21/11 A2989 RMK AO1 SLP106
METAR CYNL 160300Z AUTO ///// 9SM CLR 23/11 A2991 RMK AO1 SLP111
METAR CYNL 160200Z AUTO ///// 9SM CLR 24/09 A2993 RMK AO1 PRESFR SLP117
METAR CYNL 160100Z AUTO ///// 9SM CLR 26/08 A2995 RMK AO1 PRESFR SLP125
METAR CYNL 160000Z AUTO ///// 9SM CLR 26/07 A2998 RMK AO1 PRESFR SLP137
METAR CYNL 152300Z AUTO ///// 9SM CLR 25/07 A3000 RMK AO1 SLP149
METAR CYNL 152200Z AUTO ///// 9SM CLR 25/06 A3002 RMK AO1 SLP157
METAR CYNL 152100Z AUTO ///// 9SM CLR 24/06 A3004 RMK AO1 SLP164
METAR CYNL 152000Z AUTO ///// 9SM CLR 24/06 A3005 RMK AO1 SLP169
METAR CYNL 151900Z AUTO ///// 9SM FEW066 23/05 A3006 RMK AO1 SLP173
METAR CYNL 151800Z AUTO ///// 9SM CLR 23/07 A3008 RMK AO1 SLP180
METAR CYNL 151700Z AUTO ///// 9SM FEW045 22/09 A3009 RMK AO1 SLP185
METAR CYNL 151600Z AUTO ///// 9SM CLR 21/10 A3011 RMK AO1 SLP189
METAR CYNL 151500Z AUTO ///// 9SM CLR 20/09 A3012 RMK AO1 SLP194
METAR CYNL 151400Z AUTO ///// 9SM CLR 18/09 A3014 RMK AO1 SLP196
METAR CYNL 151300Z AUTO ///// 9SM SCT076 14/07 A3015 RMK AO1 SLP203
METAR CYNL 151200Z AUTO ///// 9SM OVC076 12/10 A3015 RMK AO1 SLP206
METAR CYNL 151100Z AUTO ///// 9SM OVC082 11/10 A3015 RMK AO1 SLP206
METAR CYNL 151000Z AUTO ///// 9SM CLR 10/09 A3016 RMK AO1 SLP209
METAR CYNL 150900Z AUTO ///// 9SM CLR 10/10 A3016 RMK AO1 SLP209
SPECI CYNL 150851Z AUTO ///// 9SM CLR 10/09 A3016 RMK AO1 SLP210
SPECI CYNL 150850Z AUTO ///// 2SM CLR 10/09 A3016 RMK AO1 SLP210
SPECI CYNL 150844Z AUTO ///// 5/8SM CLR 10/09 A3016 RMK AO1 SLP210
METAR CYNL 150800Z AUTO ///// 9SM SCT086 10/09 A3016 RMK AO1 SLP210
METAR CYNL 150700Z AUTO ///// 9SM CLR 10/09 A3016 RMK AO1 SLP211
METAR CYNL 150600Z AUTO ///// 9SM CLR 10/06 A3015 RMK AO1 SLP210
METAR CYNL 150500Z AUTO ///// 9SM CLR 11/08 A3015 RMK AO1 SLP209
METAR CYNL 150400Z AUTO ///// 9SM CLR 15/08 A3014 RMK AO1 SLP206
METAR CYNL 150300Z AUTO ///// 9SM CLR 18/03 A3014 RMK AO1 SLP201
METAR CYNL 150200Z AUTO ///// 9SM CLR 20/03 A3013 RMK AO1 SLP199
METAR CYNL 150100Z AUTO ///// 9SM CLR 20/02 A3013 RMK AO1 SLP198
METAR CYNL 150000Z AUTO ///// 9SM CLR 20/01 A3013 RMK AO1 SLP198
METAR CYNL 142300Z AUTO ///// 9SM CLR 20/01 A3013 RMK AO1 SLP196
METAR CYNL 142200Z AUTO ///// 9SM CLR 20/02 A3013 RMK AO1 SLP195
METAR CYNL 142100Z AUTO ///// 9SM CLR 19/02 A3012 RMK AO1 SLP195
METAR CYNL 142000Z AUTO ///// 9SM FEW054 18/04 A3011 RMK AO1 SLP193
SPECI CYNL 141957Z AUTO ///// 6SM FEW054 18/04 A3011 RMK AO1 SLP192
SPECI CYNL 141954Z AUTO ///// 1 1/2SM FEW054 18/04 A3011 RMK AO1 SLP191
METAR CYNL 141900Z AUTO ///// 9SM FEW041 17/05 A3011 RMK AO1 SLP191
SPECI CYNL 141859Z AUTO ///// 8SM FEW041 17/05 A3011 RMK AO1 SLP191
SPECI CYNL 141858Z AUTO ///// 2SM FEW041 17/05 A3011 RMK AO1 SLP191
SPECI CYNL 141857Z AUTO ///// 1 3/4SM FEW041 17/05 A3011 RMK AO1 SLP191
SPECI CYNL 141856Z AUTO ///// 2SM FEW041 17/06 A3011 RMK AO1 SLP191
METAR CYNL 141800Z AUTO ///// 9SM FEW030 16/07 A3010 RMK AO1 SLP190
SPECI CYNL 141740Z AUTO ///// 9SM SCT023 15/07 A3010 RMK AO1 PRESRR SLP189
METAR CYNL 141700Z AUTO ///// 9SM OVC021 14/08 A3009 RMK AO1 PRESRR SLP187
METAR CYNL 141600Z AUTO ///// 9SM BKN016 OVC020 13/09 A3007 RMK AO1 PRESRR SLP180
SPECI CYNL 141542Z AUTO ///// 9SM OVC015 13/09 A3006 RMK AO1 SLP177
METAR CYNL 141500Z AUTO ///// 9SM FEW008 OVC011 13/10 A3004 RMK AO1 SLP171
SPECI CYNL 141450Z AUTO ///// 9SM SCT008 OVC011 13/10 A3004 RMK AO1 SLP168
METAR CYNL 141400Z AUTO ///// 9SM OVC008 13/11 A3003 RMK AO1 SLP164
METAR CYNL 141300Z AUTO ///// 9SM OVC008 13/12 A3002 RMK AO1 PRESRR SLP158
METAR CYNL 141200Z AUTO ///// 9SM OVC008 14/12 A3000 RMK AO1 PRESRR SLP151
SPECI CYNL 141124Z AUTO ///// 9SM BKN008 OVC010 14/13 A2998 RMK AO1 SLP147
SPECI CYNL 141123Z AUTO ///// 9SM SCT008 OVC010 14/13 A2998 RMK AO1 SLP146
METAR CYNL 141100Z AUTO ///// 9SM BKN008 OVC016 14/13 A2997 RMK AO1 SLP141
SPECI CYNL 141047Z AUTO ///// 9SM BKN007 BKN016 OVC023 14/13 A2996 RMK AO1 SLP141
SPECI CYNL 141030Z AUTO ///// 9SM FEW005 SCT009 BKN012 14/13 A2996 RMK AO1 SLP140
SPECI CYNL 141021Z AUTO ///// 9SM FEW005 SCT009 BKN017 14/13 A2995 RMK AO1 SLP139
SPECI CYNL 141005Z AUTO ///// 9SM FEW005 13/13 A2995 RMK AO1 SLP138
METAR CYNL 141000Z AUTO ///// 9SM CLR 13/13 A2995 RMK AO1 SLP138
METAR CYNL 140900Z AUTO ///// 9SM CLR 13/12 A2996 RMK AO1 PRESRR SLP139
METAR CYNL 140800Z AUTO ///// 9SM CLR 14/12 A2994 RMK AO1 SLP133
METAR CYNL 140700Z AUTO ///// 9SM CLR 14/13 A2992 RMK AO1 SLP120
METAR CYNL 140600Z AUTO ///// 9SM CLR 15/13 A2993 RMK AO1 SLP122
METAR CYNL 140500Z AUTO ///// 9SM CLR 16/14 A2991 RMK AO1 SLP119
METAR CYNL 140400Z AUTO ///// 9SM CLR 17/15 A2991 RMK AO1 SLP115
METAR CYNL 140300Z AUTO ///// 9SM FEW025 18/15 A2991 RMK AO1 SLP112
METAR CYNL 140200Z AUTO ///// 9SM CLR 20/16 A2990 RMK AO1 SLP110
METAR CYNL 140100Z AUTO ///// 9SM CLR 20/16 A2988 RMK AO1 SLP109
METAR CYNL 140000Z AUTO ///// 9SM CLR 19/16 A2989 RMK AO1 PRESFR SLP112
SPECI CYNL 132318Z AUTO ///// 8SM FEW009 BKN050 17/15 A2991 RMK AO1 PRESRR SLP120
SPECI CYNL 132309Z AUTO ///// 8SM FEW011 SCT034 BKN048 17/15 A2992 RMK AO1 PRESRR SLP123
SPECI CYNL 132308Z AUTO ///// 6SM VV026 17/15 A2992 RMK AO1 PRESRR SLP123
SPECI CYNL 132303Z AUTO ///// 3SM FEW032 BKN049 BKN058 17/15 A2993 RMK AO1 PRESRR SLP126
METAR CYNL 132300Z AUTO ///// 2SM FEW032 BKN052 BKN064 17/15 A2992 RMK AO1 PRESRR SLP126
SPECI CYNL 132259Z AUTO ///// 2 1/2SM FEW032 BKN052 BKN072 17/15 A2992 RMK AO1 PRESRR SLP126
SPECI CYNL 132252Z AUTO ///// 3SM VV038 17/15 A2992 RMK AO1 PRESFR SLP124
SPECI CYNL 132250Z AUTO ///// 2SM VV036 18/15 A2991 RMK AO1 PRESFR SLP122
SPECI CYNL 132248Z AUTO ///// 1 1/2SM VV033 18/15 A2991 RMK AO1 PRESFR SLP120
SPECI CYNL 132245Z AUTO ///// 1 1/4SM FEW029 SCT062 19/15 A2990 RMK AO1 PRESFR SLP117
SPECI CYNL 132244Z AUTO ///// 2SM FEW049 SCT060 19/14 A2990 RMK AO1 PRESFR SLP116
METAR CYNL 132200Z AUTO ///// 9SM CLR 21/16 A2988 RMK AO1 PRESFR SLP105
METAR CYNL 132100Z AUTO ///// 9SM FEW037 SCT052 19/14 A2990 RMK AO1 SLP116
SPECI CYNL 132045Z AUTO ///// 8SM FEW011 BKN041 BKN052 18/13 A2991 RMK AO1 PRESFR SLP119
SPECI CYNL 132044Z AUTO ///// 6SM VV028 18/13 A2991 RMK AO1 PRESFR SLP119
SPECI CYNL 132042Z AUTO ///// 4SM VV036 17/13 A2991 RMK AO1 PRESFR SLP119
SPECI CYNL 132037Z AUTO ///// 2SM BKN045 18/13 A2991 RMK AO1 PRESFR SLP120
SPECI CYNL 132036Z AUTO ///// 1 3/4SM BKN046 18/13 A2991 RMK AO1 PRESFR SLP120
SPECI CYNL 132033Z AUTO ///// 2 1/2SM BKN045 18/14 A2991 RMK AO1 PRESFR SLP119
METAR CYNL 132000Z AUTO ///// 9SM CLR 24/11 A2989 RMK AO1 PRESFR SLP108
METAR CYNL 131900Z AUTO ///// 9SM CLR 24/13 A2992 RMK AO1 PRESFR SLP115
METAR CYNL 131800Z AUTO ///// 9SM FEW010 SCT036 22/14 A2994 RMK AO1 SLP125
METAR CYNL 131700Z AUTO ///// 9SM FEW130 23/13 A2995 RMK AO1 SLP128
METAR CYNL 131600Z AUTO ///// 9SM FEW064 22/12 A2996 RMK AO1 SLP131
METAR CYNL 131500Z AUTO ///// 9SM CLR 21/14 A2996 RMK AO1 SLP132
METAR CYNL 131400Z AUTO ///// 9SM CLR 17/14 A2998 RMK AO1 PRESFR SLP139
SPECI CYNL 131312Z AUTO ///// 9SM FEW005 17/14 A3000 RMK AO1 SLP146
METAR CYNL 131300Z AUTO ///// 9SM FEW044 SCT100 17/14 A3000 RMK AO1 SLP147
METAR CYNL 131200Z AUTO ///// 9SM FEW110 17/13 A3000 RMK AO1 SLP146
METAR CYNL 131100Z AUTO ///// 9SM SCT094 17/13 A3000 RMK AO1 SLP144
METAR CYNL 131000Z AUTO ///// 9SM BKN110 16/14 A3000 RMK AO1 SLP140
METAR CYNL 130900Z AUTO ///// 9SM CLR 17/13 A2999 RMK AO1 SLP139
METAR CYNL 130800Z AUTO ///// 9SM BKN110 17/12 A2999 RMK AO1 SLP139
METAR CYNL 130700Z AUTO ///// 9SM FEW076 SCT096 18/13 A3001 RMK AO1 PRESFR SLP144
METAR CYNL 130600Z AUTO ///// 9SM BKN078 18/13 A3003 RMK AO1 SLP152
METAR CYNL 130500Z AUTO ///// 9SM FEW039 SCT062 OVC082 19/13 A3002 RMK AO1 PRESRR SLP151
METAR CYNL 130400Z AUTO ///// 9SM FEW033 SCT110 20/11 A3000 RMK AO1 SLP141
METAR CYNL 130300Z AUTO ///// 9SM SCT092 21/12 A3000 RMK AO1 SLP143
SPECI CYNL 130230Z AUTO ///// 9SM SCT088 22/11 A3000 RMK AO1 SLP143
SPECI CYNL 130229Z AUTO ///// 2SM SCT088 22/11 A3000 RMK AO1 SLP143
SPECI CYNL 130227Z AUTO ///// 1 3/4SM SCT090 22/11 A3000 RMK AO1 SLP143
SPECI CYNL 130226Z AUTO ///// 2SM SCT088 22/12 A3000 RMK AO1 SLP143
SPECI CYNL 130225Z AUTO ///// 3/4SM SCT088 22/12 A3000 RMK AO1 SLP143
SPECI CYNL 130223Z AUTO ///// 1 3/4SM SCT088 22/12 A3000 RMK AO1 SLP143
METAR CYNL 130200Z AUTO ///// 9SM CLR 22/11 A3000 RMK AO1 SLP142
METAR CYNL 130100Z AUTO ///// 9SM FEW088 23/11 A3001 RMK AO1 SLP147
METAR CYNL 130000Z AUTO ///// 9SM CLR 24/11 A3001 RMK AO1 SLP150
METAR CYNL 122300Z AUTO ///// 9SM CLR 28/07 A3000 RMK AO1 SLP145
METAR CYNL 122200Z AUTO ///// 9SM CLR 28/07 A3001 RMK AO1 SLP151
METAR CYNL 122100Z AUTO ///// 9SM CLR 28/07 A3003 RMK AO1 SLP158
METAR CYNL 122000Z AUTO ///// 9SM CLR 27/07 A3005 RMK AO1 SLP164
METAR CYNL 121900Z AUTO ///// 9SM CLR 26/08 A3006 RMK AO1 SLP169
METAR CYNL 121800Z AUTO ///// 9SM CLR 25/08 A3007 RMK AO1 SLP173
METAR CYNL 121700Z AUTO ///// 9SM CLR 23/09 A3008 RMK AO1 SLP177
METAR CYNL 121600Z AUTO ///// 9SM CLR 22/08 A3009 RMK AO1 SLP179
METAR CYNL 121500Z AUTO ///// 9SM CLR 20/08 A3010 RMK AO1 SLP183
METAR CYNL 121400Z AUTO ///// 9SM CLR 18/07 A3011 RMK AO1 SLP186
SPECI CYNL 121353Z AUTO ///// 9SM CLR 18/07 A3011 RMK AO1 SLP185
SPECI CYNL 121351Z AUTO ///// 2 1/2SM CLR 17/07 A3011 RMK AO1 SLP185
METAR CYNL 121300Z AUTO ///// 9SM CLR 15/07 A3012 RMK AO1 SLP189
METAR CYNL 121200Z AUTO ///// 9SM CLR 13/07 A3011 RMK AO1 SLP190
METAR CYNL 121100Z AUTO ///// 9SM CLR 10/06 A3011 RMK AO1 SLP193
METAR CYNL 121000Z AUTO ///// 9SM CLR 09/06 A3012 RMK AO1 SLP194
METAR CYNL 120900Z AUTO ///// 9SM CLR 10/07 A3012 RMK AO1 SLP194
METAR CYNL 120800Z AUTO ///// 9SM CLR 11/07 A3012 RMK AO1 SLP194
METAR CYNL 120700Z AUTO ///// 9SM CLR 11/07 A3012 RMK AO1 SLP194
METAR CYNL 120600Z AUTO ///// 9SM CLR 12/05 A3012 RMK AO1 SLP193
METAR CYNL 120500Z AUTO ///// 9SM CLR 14/05 A3011 RMK AO1 SLP190
METAR CYNL 120400Z AUTO ///// 9SM CLR 16/05 A3011 RMK AO1 SLP189
METAR CYNL 120300Z AUTO ///// 9SM CLR 18/05 A3010 RMK AO1 SLP183
METAR CYNL 120200Z AUTO ///// 9SM CLR 20/04 A3010 RMK AO1 SLP181
METAR CYNL 120100Z AUTO ///// 9SM CLR 21/04 A3009 RMK AO1 SLP180
METAR CYNL 120000Z AUTO ///// 9SM CLR 21/04 A3009 RMK AO1 SLP180
METAR CYNL 112300Z AUTO ///// 9SM CLR 22/04 A3009 RMK AO1 SLP183
METAR CYNL 112200Z AUTO ///// 9SM CLR 21/04 A3008 RMK AO1 SLP181
METAR CYNL 112100Z AUTO ///// 9SM CLR 21/04 A3008 RMK AO1 SLP181
METAR CYNL 112000Z AUTO ///// 9SM CLR 20/05 A3009 RMK AO1 SLP183
METAR CYNL 111900Z AUTO ///// 9SM CLR 20/05 A3008 RMK AO1 SLP182
METAR CYNL 111800Z AUTO ///// 9SM FEW230 19/05 A3008 RMK AO1 SLP180
METAR CYNL 111700Z AUTO ///// 9SM CLR 19/06 A3008 RMK AO1 SLP178
METAR CYNL 111600Z AUTO ///// 9SM CLR 18/08 A3007 RMK AO1 SLP175
METAR CYNL 111500Z AUTO ///// 9SM CLR 17/09 A3007 RMK AO1 SLP173
METAR CYNL 111400Z AUTO ///// 9SM CLR 15/09 A3006 RMK AO1 SLP171
METAR CYNL 111300Z AUTO ///// 9SM CLR 14/09 A3006 RMK AO1 SLP167
METAR CYNL 111200Z AUTO ///// 9SM CLR 13/08 A3004 RMK AO1 SLP163
METAR CYNL 111100Z AUTO ///// 9SM CLR 11/07 A3003 RMK AO1 SLP158
METAR CYNL 111000Z AUTO ///// 9SM CLR 11/06 A3001 RMK AO1 SLP150
METAR CYNL 110900Z AUTO ///// 9SM CLR 12/07 A3000 RMK AO1 SLP147
METAR CYNL 110800Z AUTO ///// 9SM CLR 13/08 A2999 RMK AO1 SLP144
METAR CYNL 110700Z AUTO ///// 9SM CLR 14/08 A2999 RMK AO1 SLP144
METAR CYNL 110600Z AUTO ///// 9SM CLR 15/09 A2998 RMK AO1 SLP139
METAR CYNL 110500Z AUTO ///// 9SM CLR 17/09 A2996 RMK AO1 SLP131
METAR CYNL 110400Z AUTO ///// 9SM CLR 19/08 A2995 RMK AO1 SLP125
METAR CYNL 110300Z AUTO ///// 9SM CLR 21/07 A2993 RMK AO1 SLP118
METAR CYNL 110200Z AUTO ///// 9SM CLR 23/07 A2992 RMK AO1 SLP113
METAR CYNL 110100Z AUTO ///// 9SM CLR 24/08 A2991 RMK AO1 SLP109
METAR CYNL 110000Z AUTO ///// 9SM CLR 24/08 A2990 RMK AO1 SLP111
METAR CYNL 102300Z AUTO ///// 9SM SCT088 27/04 A2989 RMK AO1 SLP109
METAR CYNL 102200Z AUTO ///// 9SM FEW100 26/04 A2990 RMK AO1 SLP115
METAR CYNL 102100Z AUTO ///// 9SM FEW080 26/05 A2991 RMK AO1 SLP119
METAR CYNL 102000Z AUTO ///// 9SM FEW080 25/05 A2991 RMK AO1 SLP121
METAR CYNL 101900Z AUTO ///// 9SM FEW074 24/05 A2992 RMK AO1 SLP123
METAR CYNL 101800Z AUTO ///// 9SM CLR 25/05 A2992 RMK AO1 SLP124
METAR CYNL 101700Z AUTO ///// 9SM CLR 24/05 A2994 RMK AO1 SLP127
METAR CYNL 101600Z AUTO ///// 9SM CLR 23/05 A2994 RMK AO1 SLP128
METAR CYNL 101500Z AUTO ///// 9SM CLR 21/05 A2995 RMK AO1 SLP132
METAR CYNL 101400Z AUTO ///// 9SM CLR 20/06 A2995 RMK AO1 SLP130
METAR CYNL 101300Z AUTO ///// 9SM CLR 17/09 A2995 RMK AO1 SLP130
METAR CYNL 101200Z AUTO ///// 9SM CLR 13/10 A2995 RMK AO1 SLP133
METAR CYNL 101100Z AUTO ///// 9SM CLR 10/09 A2995 RMK AO1 SLP134
SPECI CYNL 101021Z AUTO ///// 9SM CLR 09/08 A2994 RMK AO1 SLP133
SPECI CYNL 101020Z AUTO ///// 2 1/2SM CLR 09/08 A2994 RMK AO1 SLP133
SPECI CYNL 101018Z AUTO ///// 1SM CLR 09/09 A2994 RMK AO1 SLP133
SPECI CYNL 101017Z AUTO ///// 1 1/2SM CLR 09/08 A2994 RMK AO1 SLP133
METAR CYNL 101000Z AUTO ///// 9SM CLR 09/08 A2994 RMK AO1 SLP133
METAR CYNL 100900Z AUTO ///// 9SM CLR 09/08 A2995 RMK AO1 SLP133
METAR CYNL 100800Z AUTO ///// 9SM CLR 10/08 A2996 RMK AO1 SLP138
METAR CYNL 100700Z AUTO ///// 9SM CLR 10/08 A2996 RMK AO1 SLP138
METAR CYNL 100600Z AUTO ///// 9SM CLR 12/08 A2996 RMK AO1 SLP139
METAR CYNL 100500Z AUTO ///// 9SM CLR 13/08 A2996 RMK AO1 SLP134
METAR CYNL 100400Z AUTO ///// 9SM CLR 15/08 A2995 RMK AO1 SLP132
METAR CYNL 100300Z AUTO ///// 9SM CLR 20/06 A2995 RMK AO1 SLP128
METAR CYNL 100200Z AUTO ///// 9SM CLR 21/05 A2995 RMK AO1 SLP125
METAR CYNL 100100Z AUTO ///// 9SM CLR 23/02 A2995 RMK AO1 SLP127
METAR CYNL 100000Z AUTO ///// 9SM CLR 23/05 A2995 RMK AO1 SLP129
METAR CYNL 092300Z AUTO ///// 9SM CLR 24/06 A2996 RMK AO1 SLP137
METAR CYNL 092200Z AUTO ///// 9SM FEW064 24/07 A2997 RMK AO1 SLP140
METAR CYNL 092100Z AUTO ///// 9SM FEW220 23/07 A2997 RMK AO1 SLP144
METAR CYNL 092000Z AUTO ///// 9SM CLR 23/06 A2998 RMK AO1 SLP144
METAR CYNL 091900Z AUTO ///// 9SM CLR 23/08 A2998 RMK AO1 SLP146
METAR CYNL 091800Z AUTO ///// 9SM FEW050 22/09 A2999 RMK AO1 SLP149
METAR CYNL 091700Z AUTO ///// 9SM FEW066 21/09 A3000 RMK AO1 SLP152
METAR CYNL 091600Z AUTO ///// 9SM FEW058 20/09 A3000 RMK AO1 SLP151
METAR CYNL 091500Z AUTO ///// 9SM FEW064 20/08 A3001 RMK AO1 SLP152
METAR CYNL 091400Z AUTO ///// 9SM CLR 18/08 A3001 RMK AO1 SLP153
METAR CYNL 091300Z AUTO ///// 9SM CLR 17/08 A3002 RMK AO1 SLP155
METAR CYNL 091200Z AUTO ///// 9SM CLR 13/09 A3002 RMK AO1 SLP158
METAR CYNL 091100Z AUTO ///// 9SM CLR 10/09 A3002 RMK AO1 SLP161
METAR CYNL 091000Z AUTO ///// 9SM CLR 09/08 A3002 RMK AO1 SLP163
METAR CYNL 090900Z AUTO ///// 9SM CLR 11/09 A3002 RMK AO1 SLP161
METAR CYNL 090800Z AUTO ///// 9SM CLR 11/09 A3002 RMK AO1 SLP163
METAR CYNL 090700Z AUTO ///// 9SM CLR 11/09 A3002 RMK AO1 SLP162
METAR CYNL 090600Z AUTO ///// 9SM CLR 14/08 A3002 RMK AO1 SLP159
METAR CYNL 090500Z AUTO ///// 9SM FEW062 15/08 A3002 RMK AO1 SLP158
METAR CYNL 090400Z AUTO ///// 9SM OVC060 17/08 A3002 RMK AO1 SLP155
METAR CYNL 090300Z AUTO ///// 9SM SCT060 18/08 A3001 RMK AO1 SLP153
METAR CYNL 090200Z AUTO ///// 9SM BKN064 19/07 A3000 RMK AO1 SLP148
METAR CYNL 090100Z AUTO ///// 9SM BKN062 20/07 A3000 RMK AO1 SLP151
METAR CYNL 090000Z AUTO ///// 9SM BKN058 20/07 A3001 RMK AO1 SLP153
METAR CYNL 082300Z AUTO ///// 9SM SCT058 20/06 A3002 RMK AO1 SLP159
METAR CYNL 082200Z AUTO ///// 9SM SCT058 22/06 A3003 RMK AO1 SLP161
METAR CYNL 082100Z AUTO ///// 9SM SCT058 20/06 A3004 RMK AO1 SLP169
SPECI CYNL 072101Z AUTO ///// 9SM FEW009 19/12 A3000 RMK AO1 SLP154
METAR CYNL 072100Z AUTO ///// 9SM FEW011 19/12 A3000 RMK AO1 SLP154
SPECI CYNL 072032Z AUTO ///// 3SM FEW014 SCT040 BKN180 19/12 A3001 RMK AO1 SLP157
SPECI CYNL 072030Z AUTO ///// 2 1/2SM FEW014 SCT064 19/12 A3001 RMK AO1 SLP157
METAR CYNL 072000Z AUTO ///// 9SM FEW066 24/08 A2999 RMK AO1 SLP145
METAR CYNL 071900Z AUTO ///// 9SM FEW066 24/07 A3000 RMK AO1 PRESFR SLP147
METAR CYNL 071800Z AUTO ///// 9SM CLR 24/08 A3003 RMK AO1 SLP157
METAR CYNL 071700Z AUTO ///// 9SM CLR 23/08 A3005 RMK AO1 SLP162
METAR CYNL 071600Z AUTO ///// 9SM CLR 22/10 A3006 RMK AO1 SLP169
METAR CYNL 071500Z AUTO ///// 9SM CLR 21/11 A3007 RMK AO1 SLP172
METAR CYNL 071400Z AUTO ///// 9SM CLR 19/11 A3008 RMK AO1 SLP171
METAR CYNL 071300Z AUTO ///// 9SM CLR 17/12 A3009 RMK AO1 SLP176
METAR CYNL 071200Z AUTO ///// 9SM CLR 16/11 A3010 RMK AO1 SLP179
METAR CYNL 071100Z AUTO ///// 9SM CLR 14/11 A3010 RMK AO1 SLP182
METAR CYNL 071000Z AUTO ///// 9SM CLR 14/09 A3011 RMK AO1 SLP186
METAR CYNL 070900Z AUTO ///// 9SM CLR 14/10 A3012 RMK AO1 SLP189
METAR CYNL 070800Z AUTO ///// 9SM CLR 15/10 A3012 RMK AO1 SLP189
METAR CYNL 070700Z AUTO ///// 9SM CLR 16/10 A3012 RMK AO1 SLP189
METAR CYNL 070600Z AUTO ///// 9SM CLR 16/10 A3012 RMK AO1 SLP188
METAR CYNL 070500Z AUTO ///// 9SM CLR 16/08 A3012 RMK AO1 SLP189
METAR CYNL 070400Z AUTO ///// 9SM CLR 17/10 A3012 RMK AO1 SLP186
METAR CYNL 070300Z AUTO ///// 9SM CLR 22/04 A3011 RMK AO1 SLP182
METAR CYNL 070200Z AUTO ///// 9SM CLR 23/04 A3011 RMK AO1 SLP182
METAR CYNL 070100Z AUTO ///// 9SM CLR 24/05 A3011 RMK AO1 SLP183
METAR CYNL 070000Z AUTO ///// 9SM CLR 24/06 A3011 RMK AO1 SLP184
METAR CYNL 062300Z AUTO ///// 9SM FEW070 24/06 A3012 RMK AO1 SLP187
METAR CYNL 062200Z AUTO ///// 9SM CLR 24/05 A3011 RMK AO1 SLP189
METAR CYNL 062100Z AUTO ///// 9SM CLR 23/06 A3012 RMK AO1 SLP193
METAR CYNL 062000Z AUTO ///// 9SM CLR 23/06 A3012 RMK AO1 SLP192
METAR CYNL 061900Z AUTO ///// 9SM FEW170 22/08 A3013 RMK AO1 SLP195
METAR CYNL 061800Z AUTO ///// 9SM FEW090 21/09 A3013 RMK AO1 SLP196
METAR CYNL 061700Z AUTO ///// 9SM FEW042 21/10 A3013 RMK AO1 SLP198
METAR CYNL 061600Z AUTO ///// 9SM CLR 20/10 A3014 RMK AO1 SLP197
METAR CYNL 061500Z AUTO ///// 9SM CLR 19/10 A3013 RMK AO1 SLP195
METAR CYNL 061400Z AUTO ///// 9SM CLR 18/10 A3013 RMK AO1 SLP194
METAR CYNL 061300Z AUTO ///// 9SM CLR 16/11 A3012 RMK AO1 SLP192
METAR CYNL 061200Z AUTO ///// 9SM CLR 14/11 A3011 RMK AO1 SLP190
METAR CYNL 061100Z AUTO ///// 9SM CLR 11/10 A3009 RMK AO1 SLP190
METAR CYNL 061000Z AUTO ///// 9SM CLR 10/09 A3008 RMK AO1 SLP186
METAR CYNL 060900Z AUTO ///// 9SM CLR 11/10 A3006 RMK AO1 SLP177
METAR CYNL 060800Z AUTO ///// 9SM CLR 11/10 A3005 RMK AO1 SLP172
METAR CYNL 060700Z AUTO ///// 9SM CLR 11/10 A3003 RMK AO1 SLP168
METAR CYNL 060600Z AUTO ///// 9SM CLR 12/10 A3002 RMK AO1 SLP161
METAR CYNL 060500Z AUTO ///// 9SM FEW028 14/11 A2999 RMK AO1 PRESRR SLP153
METAR CYNL 060400Z AUTO ///// 9SM CLR 15/10 A2996 RMK AO1 PRESRR SLP144
METAR CYNL 060300Z AUTO ///// 9SM CLR 17/10 A2993 RMK AO1 SLP132
METAR CYNL 060200Z AUTO ///// 9SM FEW032 19/11 A2991 RMK AO1 PRESRR SLP124
METAR CYNL 060100Z AUTO ///// 9SM SCT039 18/13 A2989 RMK AO1 SLP118
METAR CYNL 060000Z AUTO ///// 9SM FEW080 17/13 A2988 RMK AO1 PRESRR SLP114
SPECI CYNL 052312Z AUTO ///// 3SM VV030 16/14 A2987 RMK AO1 PRESRR SLP113
SPECI CYNL 052311Z AUTO ///// 2SM VV032 16/14 A2987 RMK AO1 PRESRR SLP112
SPECI CYNL 052310Z AUTO ///// 1 1/2SM FEW024 SCT038 BKN068 16/14 A2987 RMK AO1 PRESRR SLP112
SPECI CYNL 052309Z AUTO ///// 1 1/4SM FEW023 SCT037 BKN068 17/14 A2987 RMK AO1 PRESRR SLP112
SPECI CYNL 052307Z AUTO ///// 1 3/4SM FEW023 SCT036 BKN068 17/14 A2987 RMK AO1 PRESRR SLP111
SPECI CYNL 052306Z AUTO ///// 2 1/2SM FEW023 SCT036 17/14 A2987 RMK AO1 PRESRR SLP110
METAR CYNL 052300Z AUTO ///// 9SM FEW041 SCT068 18/12 A2986 RMK AO1 PRESRR SLP107
METAR CYNL 052200Z AUTO ///// 9SM FEW036 20/11 A2983 RMK AO1 PRESRR SLP094
METAR CYNL 052100Z AUTO ///// 9SM FEW043 SCT058 18/11 A2980 RMK AO1 PRESRR SLP088
METAR CYNL 052000Z AUTO ///// 9SM FEW029 SCT054 18/12 A2977 RMK AO1 PRESRR SLP077
METAR CYNL 051900Z AUTO ///// 9SM FEW018 17/13 A2974 RMK AO1 PRESRR SLP067
METAR CYNL 051800Z AUTO ///// 9SM FEW009 SCT025 BKN035 16/14 A2971 RMK AO1 PRESRR SLP058
SPECI CYNL 051751Z AUTO ///// 9SM FEW009 SCT016 BKN035 15/13 A2970 RMK AO1 PRESRR SLP057
SPECI CYNL 051750Z AUTO ///// 9SM FEW009 SCT013 BKN025 15/14 A2970 RMK AO1 PRESRR SLP057
SPECI CYNL 051747Z AUTO ///// 5SM SCT012 BKN025 BKN150 15/14 A2970 RMK AO1 PRESRR SLP057
SPECI CYNL 051746Z AUTO ///// 2 1/2SM SCT013 BKN025 BKN200 15/14 A2970 RMK AO1 PRESRR SLP057
SPECI CYNL 051745Z AUTO ///// 1 1/2SM FEW013 BKN025 15/14 A2970 RMK AO1 PRESRR SLP057
SPECI CYNL 051744Z AUTO ///// 1 1/4SM FEW012 BKN025 15/14 A2970 RMK AO1 PRESRR SLP057
SPECI CYNL 051740Z AUTO ///// 1 3/4SM FEW013 SCT025 BKN035 15/13 A2970 RMK AO1 PRESRR SLP055
SPECI CYNL 051739Z AUTO ///// 2SM FEW013 SCT023 BKN035 15/14 A2970 RMK AO1 PRESRR SLP055
SPECI CYNL 051726Z AUTO ///// 9SM FEW010 SCT019 BKN034 15/13 A2969 RMK AO1 PRESRR SLP053
SPECI CYNL 051725Z AUTO ///// 9SM FEW009 BKN019 15/14 A2969 RMK AO1 PRESRR SLP053
SPECI CYNL 051722Z AUTO ///// 9SM SCT010 BKN019 BKN210 15/13 A2969 RMK AO1 PRESRR SLP052
SPECI CYNL 051720Z AUTO ///// 9SM BKN012 BKN028 15/13 A2969 RMK AO1 PRESRR SLP052
SPECI CYNL 051713Z AUTO ///// 6SM FEW007 SCT011 BKN015 14/13 A2969 RMK AO1 PRESRR SLP052
SPECI CYNL 051712Z AUTO ///// 3SM VV020 14/13 A2969 RMK AO1 PRESRR SLP052
SPECI CYNL 051710Z AUTO ///// 2SM VV018 14/13 A2969 RMK AO1 PRESRR SLP051
SPECI CYNL 051709Z AUTO ///// 1 1/2SM VV017 14/13 A2968 RMK AO1 PRESRR SLP051
SPECI CYNL 051705Z AUTO ///// 1SM VV015 14/13 A2968 RMK AO1 PRESRR SLP051
METAR CYNL 051700Z AUTO ///// 1SM SCT008 BKN012 BKN015 14/13 A2968 RMK AO1 PRESRR SLP049
SPECI CYNL 051659Z AUTO ///// 1 1/4SM BKN008 BKN015 OVC020 14/13 A2968 RMK AO1 PRESRR SLP049
SPECI CYNL 051652Z AUTO ///// 3SM BKN008 BKN011 OVC014 14/13 A2967 RMK AO1 PRESRR SLP047
SPECI CYNL 051651Z AUTO ///// 2SM BKN008 BKN011 OVC014 14/13 A2967 RMK AO1 PRESRR SLP047
SPECI CYNL 051648Z AUTO ///// 1SM FEW006 BKN008 BKN011 14/13 A2967 RMK AO1 PRESRR SLP047
SPECI CYNL 051647Z AUTO ///// 1 1/2SM FEW006 BKN008 BKN011 14/13 A2967 RMK AO1 PRESRR SLP047
SPECI CYNL 051632Z AUTO ///// 3SM BKN006 BKN009 OVC012 14/13 A2966 RMK AO1 PRESRR SLP044
SPECI CYNL 051631Z AUTO ///// 2SM BKN006 OVC009 14/13 A2966 RMK AO1 PRESRR SLP043
SPECI CYNL 051629Z AUTO ///// 1 3/4SM BKN006 OVC009 14/13 A2966 RMK AO1 PRESRR SLP043
SPECI CYNL 051627Z AUTO ///// 2 1/2SM BKN006 OVC009 14/13 A2966 RMK AO1 PRESRR SLP043
SPECI CYNL 051620Z AUTO ///// 3SM BKN006 OVC009 13/13 A2966 RMK AO1 PRESRR SLP042
SPECI CYNL 051617Z AUTO ///// 2SM BKN006 OVC009 13/13 A2966 RMK AO1 PRESRR SLP042
SPECI CYNL 051611Z AUTO ///// 4SM BKN006 OVC008 13/13 A2965 RMK AO1 PRESRR SLP041
SPECI CYNL 051610Z AUTO ///// 2 1/2SM BKN006 OVC008 13/13 A2965 RMK AO1 PRESRR SLP041
SPECI CYNL 051609Z AUTO ///// 1 3/4SM BKN006 OVC008 13/13 A2965 RMK AO1 PRESRR SLP041
SPECI CYNL 051605Z AUTO ///// 1 1/4SM BKN006 BKN008 OVC012 13/12 A2965 RMK AO1 PRESRR SLP041
SPECI CYNL 051604Z AUTO ///// 1 1/2SM BKN006 OVC008 13/12 A2965 RMK AO1 PRESRR SLP041
METAR CYNL 051600Z AUTO ///// 2SM BKN006 OVC009 13/12 A2965 RMK AO1 PRESRR SLP040
SPECI CYNL 051548Z AUTO ///// 2 1/2SM BKN007 OVC012 13/12 A2964 RMK AO1 SLP038
SPECI CYNL 051542Z AUTO ///// 3SM BKN006 BKN009 OVC012 13/12 A2964 RMK AO1 SLP037
SPECI CYNL 051539Z AUTO ///// 2SM BKN006 BKN009 OVC012 13/12 A2964 RMK AO1 SLP037
SPECI CYNL 051533Z AUTO ///// 1 1/2SM BKN006 OVC012 13/12 A2964 RMK AO1 SLP036
SPECI CYNL 051518Z AUTO ///// 1 1/4SM BKN007 OVC014 13/12 A2963 RMK AO1 SLP034
SPECI CYNL 051512Z AUTO ///// 1 1/2SM BKN007 OVC014 13/12 A2963 RMK AO1 SLP033
SPECI CYNL 051508Z AUTO ///// 1SM FEW007 BKN008 OVC014 13/12 A2963 RMK AO1 SLP032
SPECI CYNL 051507Z AUTO ///// 1 1/4SM SCT007 BKN010 BKN014 13/12 A2963 RMK AO1 SLP032
SPECI CYNL 051505Z AUTO ///// 1 3/4SM SCT007 BKN010 BKN014 13/12 A2963 RMK AO1 SLP032
METAR CYNL 051500Z AUTO ///// 1 1/2SM BKN007 BKN014 OVC020 13/12 A2962 RMK AO1 SLP032
SPECI CYNL 051457Z AUTO ///// 2 1/2SM BKN007 BKN011 OVC014 13/12 A2962 RMK AO1 SLP031
SPECI CYNL 051437Z AUTO ///// 3SM BKN007 OVC012 13/12 A2962 RMK AO1 SLP029
SPECI CYNL 051432Z AUTO ///// 2SM BKN007 OVC012 13/12 A2962 RMK AO1 SLP029
SPECI CYNL 051429Z AUTO ///// 1 3/4SM BKN007 OVC012 13/12 A2961 RMK AO1 SLP028
SPECI CYNL 051427Z AUTO ///// 2SM SCT007 BKN008 OVC012 13/12 A2962 RMK AO1 SLP028
SPECI CYNL 051421Z AUTO ///// 1 1/2SM BKN007 BKN012 OVC015 13/12 A2961 RMK AO1 SLP028
SPECI CYNL 051420Z AUTO ///// 1 1/2SM SCT008 BKN012 OVC015 13/12 A2961 RMK AO1 SLP028
SPECI CYNL 051419Z AUTO ///// 1 1/4SM BKN008 BKN012 OVC017 13/12 A2961 RMK AO1 SLP028
SPECI CYNL 051416Z AUTO ///// 1 1/4SM SCT008 BKN012 OVC020 13/12 A2961 RMK AO1 SLP027
SPECI CYNL 051415Z AUTO ///// 1 1/4SM BKN008 BKN012 OVC020 13/12 A2961 RMK AO1 SLP027
SPECI CYNL 051412Z AUTO ///// 1 1/4SM SCT008 BKN011 BKN015 13/12 A2961 RMK AO1 SLP027
METAR CYNL 051400Z AUTO ///// 1 3/4SM SCT009 BKN012 OVC019 13/11 A2961 RMK AO1 SLP027
SPECI CYNL 051357Z AUTO ///// 1 3/4SM SCT009 BKN015 OVC019 13/12 A2961 RMK AO1 SLP026
SPECI CYNL 051355Z AUTO ///// 2 1/2SM SCT009 BKN015 OVC020 13/11 A2961 RMK AO1 SLP026
SPECI CYNL 051352Z AUTO ///// 3SM FEW009 SCT012 BKN016 13/12 A2961 RMK AO1 SLP026
SPECI CYNL 051350Z AUTO ///// 2SM FEW009 SCT012 BKN016 13/11 A2961 RMK AO1 SLP026
SPECI CYNL 051348Z AUTO ///// 1 1/2SM FEW009 BKN016 BKN020 13/12 A2961 RMK AO1 SLP027
SPECI CYNL 051347Z AUTO ///// 1 1/4SM FEW009 BKN016 BKN020 13/12 A2961 RMK AO1 SLP026
METAR CYNL 031900Z AUTO ///// 9SM SCT021 BKN039 17/14 A2983 RMK AO1 SLP095
SPECI CYNL 031854Z AUTO ///// 9SM SCT021 BKN039 17/14 A2983 RMK AO1 SLP095
SPECI CYNL 031850Z AUTO ///// 3SM VV025 17/14 A2983 RMK AO1 SLP095
SPECI CYNL 031849Z AUTO ///// 1 3/4SM VV023 17/14 A2983 RMK AO1 SLP094
SPECI CYNL 031848Z AUTO ///// 1 1/4SM VV021 18/14 A2983 RMK AO1 SLP094
SPECI CYNL 031844Z AUTO ///// 1 1/4SM FEW021 BKN039 18/14 A2983 RMK AO1 SLP093
METAR CYNL 031800Z AUTO ///// 9SM FEW045 19/13 A2983 RMK AO1 SLP094
METAR CYNL 031700Z AUTO ///// 9SM CLR 20/13 A2983 RMK AO1 SLP093
METAR CYNL 031600Z AUTO ///// 9SM CLR 19/12 A2985 RMK AO1 SLP099
METAR CYNL 031500Z AUTO ///// 9SM FEW064 18/12 A2985 RMK AO1 SLP100
METAR CYNL 031400Z AUTO ///// 9SM FEW064 17/12 A2987 RMK AO1 SLP106
METAR CYNL 031300Z AUTO ///// 9SM BKN046 16/11 A2988 RMK AO1 SLP113
METAR CYNL 031200Z AUTO ///// 9SM SCT043 15/11 A2990 RMK AO1 SLP117
METAR CYNL 031100Z AUTO ///// 9SM SCT044 15/12 A2989 RMK AO1 SLP116
METAR CYNL 031000Z AUTO ///// 9SM CLR 14/12 A2991 RMK AO1 SLP118
METAR CYNL 030900Z AUTO ///// 9SM FEW052 BKN088 14/12 A2992 RMK AO1 SLP122
METAR CYNL 030800Z AUTO ///// 9SM CLR 14/13 A2993 RMK AO1 SLP125
METAR CYNL 030700Z AUTO ///// 9SM FEW090 15/13 A2993 RMK AO1 SLP127
METAR CYNL 030600Z AUTO ///// 9SM FEW076 BKN096 15/13 A2994 RMK AO1 SLP131
METAR CYNL 030500Z AUTO ///// 9SM BKN056 15/13 A2996 RMK AO1 SLP137
METAR CYNL 030400Z AUTO ///// 9SM BKN044 16/14 A2996 RMK AO1 SLP138
METAR CYNL 030300Z AUTO ///// 9SM SCT044 16/14 A2996 RMK AO1 SLP140
METAR CYNL 030200Z AUTO ///// 9SM SCT070 17/13 A2997 RMK AO1 SLP142
METAR CYNL 030100Z AUTO ///// 9SM FEW084 18/13 A2999 RMK AO1 SLP149
METAR CYNL 030000Z AUTO ///// 9SM FEW090 18/12 A2999 RMK AO1 SLP152
METAR CYNL 022300Z AUTO ///// 9SM FEW088 21/09 A2999 RMK AO1 SLP151
METAR CYNL 022200Z AUTO ///// 9SM FEW170 20/09 A3001 RMK AO1 SLP160
METAR CYNL 022100Z AUTO ///// 9SM FEW160 20/09 A3001 RMK AO1 SLP162
METAR CYNL 022000Z AUTO ///// 9SM FEW120 SCT200 20/09 A3002 RMK AO1 SLP165
METAR CYNL 021900Z AUTO ///// 9SM FEW210 19/08 A3004 RMK AO1 SLP170
METAR CYNL 021800Z AUTO ///// 9SM FEW041 19/08 A3005 RMK AO1 SLP174
METAR CYNL 021700Z AUTO ///// 9SM FEW036 18/08 A3006 RMK AO1 SLP178
METAR CYNL 021600Z AUTO ///// 9SM SCT030 17/09 A3007 RMK AO1 SLP183
METAR CYNL 021500Z AUTO ///// 9SM CLR 16/09 A3008 RMK AO1 SLP186
METAR CYNL 021400Z AUTO ///// 9SM CLR 15/10 A3009 RMK AO1 SLP186
METAR CYNL 021300Z AUTO ///// 9SM CLR 13/10 A3009 RMK AO1 SLP187
METAR CYNL 021200Z AUTO ///// 9SM FEW044 11/10 A3009 RMK AO1 SLP191
METAR CYNL 021100Z AUTO ///// 9SM CLR 08/08 A3010 RMK AO1 SLP197
SPECI CYNL 021052Z AUTO ///// 3SM CLR 07/07 A3010 RMK AO1 SLP198
SPECI CYNL 021051Z AUTO ///// 1 3/4SM CLR 07/07 A3010 RMK AO1 SLP198
SPECI CYNL 021050Z AUTO ///// 1SM CLR 07/07 A3010 RMK AO1 SLP198
SPECI CYNL 021045Z AUTO ///// 1/4SM CLR 07/07 A3010 RMK AO1 SLP198
SPECI CYNL 021039Z AUTO ///// 1/8SM CLR 07/07 A3010 RMK AO1 SLP198
SPECI CYNL 021038Z AUTO ///// 1/4SM CLR 07/07 A3010 RMK AO1 SLP198
SPECI CYNL 021007Z AUTO ///// 1/8SM CLR 07/07 A3009 RMK AO1 SLP195
METAR CYNL 021000Z AUTO ///// 1/2SM CLR 07/07 A3009 RMK AO1 SLP196
SPECI CYNL 020956Z AUTO ///// 5/8SM CLR 07/07 A3009 RMK AO1 SLP196
SPECI CYNL 020955Z AUTO ///// 3/4SM CLR 08/07 A3009 RMK AO1 SLP196
SPECI CYNL 020954Z AUTO ///// 1SM CLR 07/07 A3009 RMK AO1 SLP196
SPECI CYNL 020949Z AUTO ///// 5/8SM CLR 08/07 A3009 RMK AO1 SLP196
SPECI CYNL 020947Z AUTO ///// 1 1/4SM CLR 08/07 A3009 RMK AO1 SLP196
SPECI CYNL 020946Z AUTO ///// 1 3/4SM CLR 08/07 A3009 RMK AO1 SLP196
SPECI CYNL 020944Z AUTO ///// 2 1/2SM CLR 08/07 A3009 RMK AO1 SLP196
SPECI CYNL 020936Z AUTO ///// 4SM CLR 08/08 A3010 RMK AO1 SLP196
SPECI CYNL 020935Z AUTO ///// 2SM CLR 08/07 A3010 RMK AO1 SLP196
SPECI CYNL 020931Z AUTO ///// 1 1/2SM CLR 08/08 A3010 RMK AO1 SLP196
SPECI CYNL 020927Z AUTO ///// 2SM CLR 08/08 A3010 RMK AO1 SLP196
SPECI CYNL 020925Z AUTO ///// 1 3/4SM CLR 08/08 A3010 RMK AO1 SLP196
SPECI CYNL 020924Z AUTO ///// 2SM CLR 08/08 A3010 RMK AO1 SLP196
METAR CYNL 020900Z AUTO ///// 9SM CLR 08/08 A3010 RMK AO1 SLP196
SPECI CYNL 020842Z AUTO ///// 3SM CLR 08/07 A3010 RMK AO1 SLP196
SPECI CYNL 020841Z AUTO ///// 2 1/2SM CLR 08/07 A3010 RMK AO1 SLP196
METAR CYNL 020800Z AUTO ///// 9SM CLR 08/07 A3009 RMK AO1 SLP195
METAR CYNL 020700Z AUTO ///// 9SM CLR 09/08 A3010 RMK AO1 SLP197
METAR CYNL 020600Z AUTO ///// 9SM CLR 10/09 A3010 RMK AO1 SLP196
METAR CYNL 020500Z AUTO ///// 9SM CLR 11/09 A3010 RMK AO1 SLP195
METAR CYNL 020400Z AUTO ///// 9SM CLR 13/09 A3010 RMK AO1 SLP194
METAR CYNL 020300Z AUTO ///// 9SM SCT038 14/09 A3009 RMK AO1 SLP192
METAR CYNL 020200Z AUTO ///// 9SM FEW028 15/09 A3009 RMK AO1 SLP191
METAR CYNL 020100Z AUTO ///// 9SM FEW027 OVC036 15/09 A3009 RMK AO1 SLP190
METAR CYNL 020000Z AUTO ///// 9SM OVC032 15/08 A3009 RMK AO1 SLP191
SPECI CYNL 012345Z AUTO ///// 9SM OVC030 15/09 A3009 RMK AO1 SLP193
METAR CYNL 012300Z AUTO ///// 9SM OVC027 15/08 A3009 RMK AO1 SLP193
SPECI CYNL 012232Z AUTO ///// 9SM OVC025 14/08 A3010 RMK AO1 SLP195
METAR CYNL 012200Z AUTO ///// 9SM OVC023 14/09 A3010 RMK AO1 SLP195
METAR CYNL 012100Z AUTO ///// 9SM OVC021 15/08 A3009 RMK AO1 SLP193
METAR CYNL 012000Z AUTO ///// 9SM OVC019 13/08 A3008 RMK AO1 SLP194
METAR CYNL 011900Z AUTO ///// 9SM OVC019 13/08 A3008 RMK AO1 SLP194
METAR CYNL 011800Z AUTO ///// 9SM OVC017 12/07 A3008 RMK AO1 SLP196
SPECI CYNL 011733Z AUTO ///// 9SM OVC015 12/07 A3008 RMK AO1 SLP194
METAR CYNL 011700Z AUTO ///// 9SM OVC014 11/07 A3008 RMK AO1 SLP195
METAR CYNL 011600Z AUTO ///// 9SM OVC013 11/07 A3008 RMK AO1 SLP192
METAR CYNL 011500Z AUTO ///// 9SM OVC013 11/07 A3007 RMK AO1 SLP188
METAR CYNL 011400Z AUTO ///// 9SM OVC012 10/07 A3006 RMK AO1 SLP185
METAR CYNL 011300Z AUTO ///// 9SM BKN011 OVC016 10/07 A3006 RMK AO1 SLP181
SPECI CYNL 011214Z AUTO ///// 9SM BKN010 OVC012 09/07 A3005 RMK AO1 SLP182
SPECI CYNL 011210Z AUTO ///// 9SM BKN009 OVC012 09/07 A3005 RMK AO1 SLP181
METAR CYNL 011200Z AUTO ///// 9SM OVC011 09/07 A3005 RMK AO1 SLP181
METAR CYNL 011100Z AUTO ///// 9SM OVC013 09/07 A3004 RMK AO1 SLP179
METAR CYNL 011000Z AUTO ///// 9SM OVC013 08/07 A3004 RMK AO1 SLP177
SPECI CYNL 010938Z AUTO ///// 9SM BKN014 OVC018 08/06 A3003 RMK AO1 SLP175
METAR CYNL 010900Z AUTO ///// 9SM OVC022 07/05 A3003 RMK AO1 SLP175
SPECI CYNL 010838Z AUTO ///// 9SM BKN024 BKN029 06/05 A3003 RMK AO1 SLP175
SPECI CYNL 010827Z AUTO ///// 9SM BKN026 06/05 A3003 RMK AO1 SLP175
METAR CYNL 010800Z AUTO ///// 9SM CLR 06/05 A3002 RMK AO1 SLP174
METAR CYNL 010700Z AUTO ///// 9SM CLR 06/04 A3002 RMK AO1 SLP175
METAR CYNL 010600Z AUTO ///// 9SM CLR 07/05 A3003 RMK AO1 SLP174
METAR CYNL 010500Z AUTO ///// 9SM CLR 08/06 A3003 RMK AO1 SLP175
METAR CYNL 010400Z AUTO ///// 9SM CLR 10/07 A3003 RMK AO1 SLP173
METAR CYNL 010300Z AUTO ///// 9SM BKN032 12/07 A3002 RMK AO1 SLP169
METAR CYNL 010200Z AUTO ///// 9SM OVC048 13/07 A3002 RMK AO1 SLP167
METAR CYNL 010100Z AUTO ///// 9SM SCT027 OVC045 13/06 A3002 RMK AO1 SLP168
METAR CYNL 010000Z AUTO ///// 9SM BKN030 BKN038 13/07 A3002 RMK AO1 SLP168
SPECI CYNL 302357Z AUTO ///// 9SM BKN030 BKN038 13/07 A3002 RMK AO1 SLP169
SPECI CYNL 302353Z AUTO ///// 9SM BKN029 BKN038 13/07 A3002 RMK AO1 SLP169
SPECI CYNL 302352Z AUTO ///// 9SM SCT029 BKN038 13/07 A3002 RMK AO1 SLP169
SPECI CYNL 302348Z AUTO ///// 9SM BKN028 OVC038 13/07 A3002 RMK AO1 SLP168
METAR CYNL 302300Z AUTO ///// 9SM OVC031 13/07 A3001 RMK AO1 SLP167
SPECI CYNL 302241Z AUTO ///// 9SM SCT025 OVC033 13/07 A3001 RMK AO1 SLP169
SPECI CYNL 302236Z AUTO ///// 9SM BKN025 OVC033 13/07 A3002 RMK AO1 SLP170
SPECI CYNL 302234Z AUTO ///// 9SM BKN024 OVC033 13/07 A3002 RMK AO1 SLP170
SPECI CYNL 302232Z AUTO ///// 9SM BKN025 OVC033 13/07 A3002 RMK AO1 SLP170
SPECI CYNL 302229Z AUTO ///// 9SM BKN024 OVC033 13/07 A3002 RMK AO1 SLP170
SPECI CYNL 302228Z AUTO ///// 9SM BKN025 OVC033 13/07 A3002 RMK AO1 SLP170
SPECI CYNL 302220Z AUTO ///// 9SM SCT026 OVC033 13/07 A3002 RMK AO1 SLP170
SPECI CYNL 302219Z AUTO ///// 9SM OVC029 13/07 A3002 RMK AO1 SLP169
SPECI CYNL 302217Z AUTO ///// 9SM SCT025 OVC032 13/07 A3002 RMK AO1 SLP169
SPECI CYNL 302213Z AUTO ///// 9SM BKN025 OVC032 13/07 A3002 RMK AO1 SLP169
SPECI CYNL 302210Z AUTO ///// 9SM BKN024 OVC031 13/07 A3001 RMK AO1 SLP169
SPECI CYNL 302202Z AUTO ///// 9SM FEW021 BKN030 13/07 A3002 RMK AO1 SLP169
METAR CYNL 302200Z AUTO ///// 9SM FEW021 BKN029 13/07 A3002 RMK AO1 SLP170
SPECI CYNL 302150Z AUTO ///// 9SM SCT021 BKN029 OVC200 13/07 A3002 RMK AO1 SLP171
SPECI CYNL 302147Z AUTO ///// 9SM BKN021 BKN030 OVC200 13/07 A3002 RMK AO1 SLP170
SPECI CYNL 302146Z AUTO ///// 9SM SCT021 BKN029 OVC200 13/07 A3002 RMK AO1 SLP170
SPECI CYNL 302145Z AUTO ///// 9SM BKN021 BKN029 13/07 A3002 RMK AO1 SLP171
SPECI CYNL 302142Z AUTO ///// 9SM SCT021 BKN028 13/07 A3002 RMK AO1 SLP170
SPECI CYNL 302118Z AUTO ///// 9SM BKN022 13/08 A3001 RMK AO1 SLP168
SPECI CYNL 302115Z AUTO ///// 9SM SCT023 BKN032 BKN039 13/07 A3001 RMK AO1 SLP169
METAR CYNL 302100Z AUTO ///// 9SM BKN023 BKN031 OVC210 13/07 A3001 RMK AO1 SLP167
SPECI CYNL 302056Z AUTO ///// 9SM BKN024 BKN040 13/07 A3001 RMK AO1 SLP168
SPECI CYNL 302048Z AUTO ///// 9SM BKN025 BKN044 13/07 A3001 RMK AO1 SLP170
SPECI CYNL 302043Z AUTO ///// 9SM BKN023 BKN044 13/07 A3001 RMK AO1 SLP169
METAR CYNL 302000Z AUTO ///// 9SM FEW023 BKN030 13/07 A3001 RMK AO1 SLP169
SPECI CYNL 301958Z AUTO ///// 9SM FEW023 BKN030 12/07 A3001 RMK AO1 SLP169
SPECI CYNL 301957Z AUTO ///// 9SM FEW023 BKN029 12/07 A3001 RMK AO1 SLP169
SPECI CYNL 301917Z AUTO ///// 9SM SCT025 BKN032 12/07 A3001 RMK AO1 SLP169
SPECI CYNL 301913Z AUTO ///// 9SM BKN025 13/07 A3001 RMK AO1 SLP168
SPECI CYNL 301910Z AUTO ///// 9SM BKN024 13/07 A3001 RMK AO1 SLP168
METAR CYNL 301900Z AUTO ///// 9SM FEW028 SCT052 14/07 A3000 RMK AO1 SLP166
SPECI CYNL 301834Z AUTO ///// 9SM FEW021 SCT028 BKN052 12/08 A3001 RMK AO1 SLP169
SPECI CYNL 301832Z AUTO ///// 9SM SCT021 BKN028 12/08 A3001 RMK AO1 SLP169
SPECI CYNL 301829Z AUTO ///// 9SM BKN024 12/08 A3001 RMK AO1 SLP168
SPECI CYNL 301826Z AUTO ///// 9SM SCT021 BKN028 BKN200 13/07 A3001 RMK AO1 SLP168
SPECI CYNL 301808Z AUTO ///// 9SM BKN020 13/08 A3001 RMK AO1 SLP168
SPECI CYNL 301806Z AUTO ///// 9SM SCT019 BKN025 BKN056 13/08 A3001 RMK AO1 SLP168
METAR CYNL 301800Z AUTO ///// 9SM BKN019 BKN033 12/08 A3001 RMK AO1 SLP169
SPECI CYNL 301751Z AUTO ///// 9SM BKN020 BKN036 12/08 A3001 RMK AO1 SLP169
SPECI CYNL 301742Z AUTO ///// 4SM SCT018 BKN025 BKN034 11/08 A3002 RMK AO1 SLP170
SPECI CYNL 301741Z AUTO ///// 1 1/2SM SCT019 BKN026 BKN034 11/09 A3002 RMK AO1 SLP170
SPECI CYNL 301740Z AUTO ///// 1 1/4SM SCT018 BKN026 BKN035 11/08 A3002 RMK AO1 SLP170
SPECI CYNL 301739Z AUTO ///// 1 1/2SM SCT018 BKN026 BKN035 12/08 A3002 RMK AO1 SLP170
SPECI CYNL 301738Z AUTO ///// 2SM SCT019 BKN034 12/08 A3002 RMK AO1 SLP170
SPECI CYNL 301736Z AUTO ///// 6SM SCT019 BKN030 BKN036 12/08 A3002 RMK AO1 SLP170
SPECI CYNL 301735Z AUTO ///// 9SM SCT020 BKN029 BKN036 12/07 A3002 RMK AO1 SLP170
SPECI CYNL 301730Z AUTO ///// 9SM SCT020 BKN037 12/07 A3002 RMK AO1 SLP170
SPECI CYNL 301729Z AUTO ///// 9SM SCT020 BKN029 BKN037 12/07 A3002 RMK AO1 SLP169
METAR CYNL 301700Z AUTO ///// 9SM FEW017 BKN038 12/07 A3002 RMK AO1 SLP171
SPECI CYNL 301651Z AUTO ///// 7SM SCT015 BKN030 BKN036 11/07 A3002 RMK AO1 SLP172
SPECI CYNL 301642Z AUTO ///// 9SM BKN015 BKN025 11/08 A3003 RMK AO1 SLP173
SPECI CYNL 301638Z AUTO ///// 9SM BKN014 BKN021 11/08 A3003 RMK AO1 SLP172
SPECI CYNL 301633Z AUTO ///// 9SM FEW012 BKN015 BKN024 12/08 A3003 RMK AO1 SLP172
SPECI CYNL 301632Z AUTO ///// 9SM BKN014 BKN024 12/07 A3003 RMK AO1 SLP172
METAR CYNL 301600Z AUTO ///// 9SM BKN017 BKN039 11/07 A3003 RMK AO1 SLP173
SPECI CYNL 301548Z AUTO ///// 9SM BKN020 BKN040 12/07 A3002 RMK AO1 SLP171
SPECI CYNL 301503Z AUTO ///// 9SM SCT025 BKN034 12/06 A3003 RMK AO1 SLP172
METAR CYNL 301500Z AUTO ///// 9SM FEW022 BKN027 12/06 A3003 RMK AO1 SLP172
SPECI CYNL 301455Z AUTO ///// 9SM FEW018 SCT027 BKN033 11/06 A3003 RMK AO1 SLP171
SPECI CYNL 301437Z AUTO ///// 9SM SCT017 BKN027 BKN047 12/06 A3003 RMK AO1 SLP173
SPECI CYNL 301401Z AUTO ///// 9SM BKN017 11/07 A3004 RMK AO1 SLP177
METAR CYNL 301400Z AUTO ///// 9SM SCT017 BKN060 11/07 A3004 RMK AO1 SLP177
METAR CYNL 301300Z AUTO ///// 9SM BKN066 10/07 A3004 RMK AO1 SLP177
METAR CYNL 301200Z AUTO ///// 9SM SCT066 09/07 A3004 RMK AO1 SLP178
METAR CYNL 301100Z AUTO ///// 9SM FEW066 BKN110 08/07 A3004 RMK AO1 SLP178
METAR CYNL 301000Z AUTO ///// 9SM BKN033 08/07 A3004 RMK AO1 SLP181
METAR CYNL 300900Z AUTO ///// 9SM FEW150 07/06 A3004 RMK AO1 SLP180
METAR CYNL 300800Z AUTO ///// 9SM SCT068 07/06 A3005 RMK AO1 SLP182
METAR CYNL 300700Z AUTO ///// 9SM SCT068 09/07 A3005 RMK AO1 SLP181
METAR CYNL 300600Z AUTO ///// 9SM FEW038 BKN068 10/07 A3006 RMK AO1 SLP182
METAR CYNL 300500Z AUTO ///// 9SM FEW035 OVC058 11/07 A3006 RMK AO1 SLP185
METAR CYNL 300400Z AUTO ///// 9SM OVC056 11/07 A3007 RMK AO1 SLP186
METAR CYNL 300300Z AUTO ///// 9SM SCT031 OVC056 11/07 A3006 RMK AO1 SLP186
SPECI CYNL 300227Z AUTO ///// 9SM SCT021 BKN031 OVC056 12/07 A3006 RMK AO1 SLP186
SPECI CYNL 300218Z AUTO ///// 9SM BKN020 BKN056 12/07 A3006 RMK AO1 SLP186
SPECI CYNL 300216Z AUTO ///// 9SM SCT021 BKN029 BKN056 12/07 A3006 RMK AO1 SLP186
SPECI CYNL 300205Z AUTO ///// 9SM SCT022 BKN030 BKN056 12/07 A3006 RMK AO1 SLP186
SPECI CYNL 300203Z AUTO ///// 9SM BKN022 BKN056 12/07 A3006 RMK AO1 SLP186
SPECI CYNL 300202Z AUTO ///// 9SM SCT023 BKN030 BKN056 12/07 A3006 RMK AO1 SLP186
SPECI CYNL 300201Z AUTO ///// 9SM SCT022 BKN029 BKN056 12/07 A3006 RMK AO1 SLP186
METAR CYNL 300200Z AUTO ///// 9SM SCT022 BKN030 BKN056 12/07 A3006 RMK AO1 SLP186
SPECI CYNL 300158Z AUTO ///// 9SM SCT021 BKN027 BKN056 12/07 A3006 RMK AO1 SLP187
SPECI CYNL 300144Z AUTO ///// 9SM FEW020 SCT026 BKN035 12/07 A3007 RMK AO1 SLP187
SPECI CYNL 300135Z AUTO ///// 9SM SCT019 BKN025 BKN034 12/07 A3007 RMK AO1 SLP188
SPECI CYNL 300122Z AUTO ///// 9SM FEW018 SCT024 BKN033 12/07 A3007 RMK AO1 SLP188
SPECI CYNL 300121Z AUTO ///// 9SM FEW018 BKN024 BKN052 12/07 A3007 RMK AO1 SLP188
SPECI CYNL 300119Z AUTO ///// 9SM SCT018 BKN025 BKN052 12/07 A3007 RMK AO1 SLP187
SPECI CYNL 300106Z AUTO ///// 9SM FEW018 SCT027 BKN033 12/08 A3007 RMK AO1 SLP187
METAR CYNL 300100Z AUTO ///// 9SM FEW018 BKN027 12/08 A3006 RMK AO1 SLP186
SPECI CYNL 300030Z AUTO ///// 9SM FEW018 BKN025 12/08 A3006 RMK AO1 SLP185
SPECI CYNL 300028Z AUTO ///// 9SM FEW019 SCT026 BKN033 12/07 A3006 RMK AO1 SLP185
SPECI CYNL 300016Z AUTO ///// 9SM SCT019 BKN026 12/07 A3006 RMK AO1 SLP185
SPECI CYNL 300007Z AUTO ///// 9SM BKN019 12/08 A3006 RMK AO1 SLP186
SPECI CYNL 300006Z AUTO ///// 9SM 12/08 A3006 RMK AO1 SLP186
METAR CYNL 300000Z AUTO ///// 9SM BKN017 BKN021 12/08 A3006 RMK AO1 SLP186
SPECI CYNL 292328Z AUTO ///// 9SM BKN017 OVC033 12/08 A3006 RMK AO1 SLP186
SPECI CYNL 292301Z AUTO ///// 9SM SCT025 OVC032 11/08 A3006 RMK AO1 SLP186
METAR CYNL 292300Z AUTO ///// 9SM OVC028 11/08 A3006 RMK AO1 SLP186